<?xml version="1.0" encoding="UTF-8" standalone="no" ?>
<gpx xmlns="http://www.topografix.com/GPX/1/1" xmlns:xsi="http://www.w3.org/2001/XMLSchema-instance" xsi:schemaLocation="http://www.topografix.com/GPX/1/1 http://www.topografix.com/GPX/1/1/gpx.xsd" version="1.1" creator="VisuGPX - https://www.visugpx.com">
  <metadata>
    <name>2024-12-27  Randonnée TwoNav</name>
    <desc><![CDATA[2024-12-27_142520.trk]]></desc>
  </metadata>
  <trk>
    <name><![CDATA[2024-12-27  Randonnée TwoNav_1]]></name>
    <trkseg>
      <trkpt lat="50.15681" lon="4.11993">
        <ele>234.9</ele>
        <time>2024-12-27T13:25:24Z</time>
      </trkpt>
      <trkpt lat="50.15683" lon="4.11991">
        <ele>234.9</ele>
        <time>2024-12-27T13:25:25Z</time>
      </trkpt>
      <trkpt lat="50.15685" lon="4.11988">
        <ele>234.9</ele>
        <time>2024-12-27T13:25:26Z</time>
      </trkpt>
      <trkpt lat="50.15688" lon="4.11987">
        <ele>234.9</ele>
        <time>2024-12-27T13:25:27Z</time>
      </trkpt>
      <trkpt lat="50.1569" lon="4.11985">
        <ele>235</ele>
        <time>2024-12-27T13:25:28Z</time>
      </trkpt>
      <trkpt lat="50.15693" lon="4.11983">
        <ele>235</ele>
        <time>2024-12-27T13:25:29Z</time>
      </trkpt>
      <trkpt lat="50.15694" lon="4.11983">
        <ele>235</ele>
        <time>2024-12-27T13:25:30Z</time>
      </trkpt>
      <trkpt lat="50.15696" lon="4.11982">
        <ele>235</ele>
        <time>2024-12-27T13:25:31Z</time>
      </trkpt>
      <trkpt lat="50.15697" lon="4.11985">
        <ele>235.1</ele>
        <time>2024-12-27T13:25:32Z</time>
      </trkpt>
      <trkpt lat="50.15697" lon="4.11987">
        <ele>235.1</ele>
        <time>2024-12-27T13:25:33Z</time>
      </trkpt>
      <trkpt lat="50.15705" lon="4.11978">
        <ele>234.8</ele>
        <time>2024-12-27T13:25:54Z</time>
      </trkpt>
      <trkpt lat="50.15715" lon="4.11975">
        <ele>234.6</ele>
        <time>2024-12-27T13:26:01Z</time>
      </trkpt>
      <trkpt lat="50.15724" lon="4.1197">
        <ele>234.4</ele>
        <time>2024-12-27T13:26:09Z</time>
      </trkpt>
      <trkpt lat="50.15733" lon="4.11966">
        <ele>234.2</ele>
        <time>2024-12-27T13:26:17Z</time>
      </trkpt>
      <trkpt lat="50.15742" lon="4.11961">
        <ele>234.1</ele>
        <time>2024-12-27T13:26:25Z</time>
      </trkpt>
      <trkpt lat="50.15749" lon="4.11953">
        <ele>234</ele>
        <time>2024-12-27T13:26:34Z</time>
      </trkpt>
      <trkpt lat="50.15758" lon="4.11947">
        <ele>233.8</ele>
        <time>2024-12-27T13:26:42Z</time>
      </trkpt>
      <trkpt lat="50.15765" lon="4.11938">
        <ele>233.7</ele>
        <time>2024-12-27T13:26:51Z</time>
      </trkpt>
      <trkpt lat="50.15773" lon="4.11929">
        <ele>233.5</ele>
        <time>2024-12-27T13:26:59Z</time>
      </trkpt>
      <trkpt lat="50.1578" lon="4.1192">
        <ele>233.2</ele>
        <time>2024-12-27T13:27:03Z</time>
      </trkpt>
      <trkpt lat="50.15789" lon="4.11911">
        <ele>232.8</ele>
        <time>2024-12-27T13:27:08Z</time>
      </trkpt>
      <trkpt lat="50.15797" lon="4.11902">
        <ele>232.4</ele>
        <time>2024-12-27T13:27:14Z</time>
      </trkpt>
      <trkpt lat="50.15803" lon="4.1189">
        <ele>231.9</ele>
        <time>2024-12-27T13:27:22Z</time>
      </trkpt>
      <trkpt lat="50.15809" lon="4.11879">
        <ele>231.4</ele>
        <time>2024-12-27T13:27:30Z</time>
      </trkpt>
      <trkpt lat="50.15814" lon="4.11866">
        <ele>230.9</ele>
        <time>2024-12-27T13:27:38Z</time>
      </trkpt>
      <trkpt lat="50.1582" lon="4.11854">
        <ele>230.5</ele>
        <time>2024-12-27T13:27:48Z</time>
      </trkpt>
      <trkpt lat="50.15825" lon="4.11842">
        <ele>229.9</ele>
        <time>2024-12-27T13:27:55Z</time>
      </trkpt>
      <trkpt lat="50.1583" lon="4.1183">
        <ele>229.3</ele>
        <time>2024-12-27T13:28:02Z</time>
      </trkpt>
      <trkpt lat="50.15835" lon="4.11818">
        <ele>228.7</ele>
        <time>2024-12-27T13:28:10Z</time>
      </trkpt>
      <trkpt lat="50.1584" lon="4.11806">
        <ele>228</ele>
        <time>2024-12-27T13:28:18Z</time>
      </trkpt>
      <trkpt lat="50.15843" lon="4.11791">
        <ele>227.2</ele>
        <time>2024-12-27T13:28:28Z</time>
      </trkpt>
      <trkpt lat="50.15846" lon="4.11777">
        <ele>226.5</ele>
        <time>2024-12-27T13:28:37Z</time>
      </trkpt>
      <trkpt lat="50.15851" lon="4.11764">
        <ele>225.8</ele>
        <time>2024-12-27T13:28:46Z</time>
      </trkpt>
      <trkpt lat="50.15855" lon="4.11751">
        <ele>225.1</ele>
        <time>2024-12-27T13:28:54Z</time>
      </trkpt>
      <trkpt lat="50.1586" lon="4.11738">
        <ele>224.4</ele>
        <time>2024-12-27T13:29:03Z</time>
      </trkpt>
      <trkpt lat="50.15864" lon="4.11725">
        <ele>223.7</ele>
        <time>2024-12-27T13:29:12Z</time>
      </trkpt>
      <trkpt lat="50.15869" lon="4.11711">
        <ele>223.1</ele>
        <time>2024-12-27T13:29:22Z</time>
      </trkpt>
      <trkpt lat="50.15873" lon="4.11698">
        <ele>222.6</ele>
        <time>2024-12-27T13:29:31Z</time>
      </trkpt>
      <trkpt lat="50.15878" lon="4.11685">
        <ele>222.2</ele>
        <time>2024-12-27T13:29:41Z</time>
      </trkpt>
      <trkpt lat="50.15884" lon="4.11674">
        <ele>222</ele>
        <time>2024-12-27T13:29:50Z</time>
      </trkpt>
      <trkpt lat="50.15891" lon="4.11663">
        <ele>221.8</ele>
        <time>2024-12-27T13:30:00Z</time>
      </trkpt>
      <trkpt lat="50.15898" lon="4.11652">
        <ele>221.8</ele>
        <time>2024-12-27T13:30:08Z</time>
      </trkpt>
      <trkpt lat="50.15906" lon="4.11643">
        <ele>221.8</ele>
        <time>2024-12-27T13:30:17Z</time>
      </trkpt>
      <trkpt lat="50.15912" lon="4.11632">
        <ele>222</ele>
        <time>2024-12-27T13:30:26Z</time>
      </trkpt>
      <trkpt lat="50.15919" lon="4.11621">
        <ele>222.2</ele>
        <time>2024-12-27T13:30:34Z</time>
      </trkpt>
      <trkpt lat="50.15925" lon="4.1161">
        <ele>222.4</ele>
        <time>2024-12-27T13:30:43Z</time>
      </trkpt>
      <trkpt lat="50.15932" lon="4.116">
        <ele>222.7</ele>
        <time>2024-12-27T13:30:51Z</time>
      </trkpt>
      <trkpt lat="50.15938" lon="4.11589">
        <ele>223.1</ele>
        <time>2024-12-27T13:31:00Z</time>
      </trkpt>
      <trkpt lat="50.15945" lon="4.11578">
        <ele>223.4</ele>
        <time>2024-12-27T13:31:09Z</time>
      </trkpt>
      <trkpt lat="50.15951" lon="4.11567">
        <ele>223.8</ele>
        <time>2024-12-27T13:31:17Z</time>
      </trkpt>
      <trkpt lat="50.15957" lon="4.11555">
        <ele>224.1</ele>
        <time>2024-12-27T13:31:25Z</time>
      </trkpt>
      <trkpt lat="50.15963" lon="4.11544">
        <ele>224.4</ele>
        <time>2024-12-27T13:31:34Z</time>
      </trkpt>
      <trkpt lat="50.15969" lon="4.11533">
        <ele>224.5</ele>
        <time>2024-12-27T13:31:43Z</time>
      </trkpt>
      <trkpt lat="50.15974" lon="4.11521">
        <ele>224.7</ele>
        <time>2024-12-27T13:31:52Z</time>
      </trkpt>
      <trkpt lat="50.1598" lon="4.11508">
        <ele>224.7</ele>
        <time>2024-12-27T13:32:01Z</time>
      </trkpt>
      <trkpt lat="50.15986" lon="4.11497">
        <ele>224.7</ele>
        <time>2024-12-27T13:32:10Z</time>
      </trkpt>
      <trkpt lat="50.15992" lon="4.11484">
        <ele>224.7</ele>
        <time>2024-12-27T13:32:19Z</time>
      </trkpt>
      <trkpt lat="50.15997" lon="4.11472">
        <ele>224.6</ele>
        <time>2024-12-27T13:32:27Z</time>
      </trkpt>
      <trkpt lat="50.16001" lon="4.11459">
        <ele>224.5</ele>
        <time>2024-12-27T13:32:37Z</time>
      </trkpt>
      <trkpt lat="50.16006" lon="4.11447">
        <ele>224.2</ele>
        <time>2024-12-27T13:32:47Z</time>
      </trkpt>
      <trkpt lat="50.1601" lon="4.11434">
        <ele>223.9</ele>
        <time>2024-12-27T13:32:55Z</time>
      </trkpt>
      <trkpt lat="50.16013" lon="4.1142">
        <ele>223.5</ele>
        <time>2024-12-27T13:33:04Z</time>
      </trkpt>
      <trkpt lat="50.16019" lon="4.11407">
        <ele>223</ele>
        <time>2024-12-27T13:33:14Z</time>
      </trkpt>
      <trkpt lat="50.16022" lon="4.11394">
        <ele>222.4</ele>
        <time>2024-12-27T13:33:22Z</time>
      </trkpt>
      <trkpt lat="50.16025" lon="4.11381">
        <ele>221.8</ele>
        <time>2024-12-27T13:33:31Z</time>
      </trkpt>
      <trkpt lat="50.1603" lon="4.11367">
        <ele>221.1</ele>
        <time>2024-12-27T13:33:41Z</time>
      </trkpt>
      <trkpt lat="50.16033" lon="4.11354">
        <ele>220.5</ele>
        <time>2024-12-27T13:33:50Z</time>
      </trkpt>
      <trkpt lat="50.16036" lon="4.11339">
        <ele>219.8</ele>
        <time>2024-12-27T13:34:00Z</time>
      </trkpt>
      <trkpt lat="50.16039" lon="4.11325">
        <ele>219.1</ele>
        <time>2024-12-27T13:34:08Z</time>
      </trkpt>
      <trkpt lat="50.16044" lon="4.11311">
        <ele>218.2</ele>
        <time>2024-12-27T13:34:18Z</time>
      </trkpt>
      <trkpt lat="50.16049" lon="4.11299">
        <ele>217.3</ele>
        <time>2024-12-27T13:34:23Z</time>
      </trkpt>
      <trkpt lat="50.1605" lon="4.11285">
        <ele>216.2</ele>
        <time>2024-12-27T13:34:31Z</time>
      </trkpt>
      <trkpt lat="50.16052" lon="4.11269">
        <ele>215.1</ele>
        <time>2024-12-27T13:34:41Z</time>
      </trkpt>
      <trkpt lat="50.16056" lon="4.11256">
        <ele>214</ele>
        <time>2024-12-27T13:34:50Z</time>
      </trkpt>
      <trkpt lat="50.16054" lon="4.11241">
        <ele>213</ele>
        <time>2024-12-27T13:35:01Z</time>
      </trkpt>
      <trkpt lat="50.16057" lon="4.11228">
        <ele>212.2</ele>
        <time>2024-12-27T13:35:10Z</time>
      </trkpt>
      <trkpt lat="50.1606" lon="4.11213">
        <ele>211.5</ele>
        <time>2024-12-27T13:35:19Z</time>
      </trkpt>
      <trkpt lat="50.16066" lon="4.11201">
        <ele>211</ele>
        <time>2024-12-27T13:35:28Z</time>
      </trkpt>
      <trkpt lat="50.1607" lon="4.11189">
        <ele>210.8</ele>
        <time>2024-12-27T13:35:35Z</time>
      </trkpt>
      <trkpt lat="50.16077" lon="4.11179">
        <ele>210.7</ele>
        <time>2024-12-27T13:35:44Z</time>
      </trkpt>
      <trkpt lat="50.16083" lon="4.1117">
        <ele>210.9</ele>
        <time>2024-12-27T13:35:52Z</time>
      </trkpt>
      <trkpt lat="50.16091" lon="4.1116">
        <ele>211.3</ele>
        <time>2024-12-27T13:36:01Z</time>
      </trkpt>
      <trkpt lat="50.16097" lon="4.1115">
        <ele>211.9</ele>
        <time>2024-12-27T13:36:10Z</time>
      </trkpt>
      <trkpt lat="50.16103" lon="4.11139">
        <ele>212.5</ele>
        <time>2024-12-27T13:36:20Z</time>
      </trkpt>
      <trkpt lat="50.16109" lon="4.11128">
        <ele>213.2</ele>
        <time>2024-12-27T13:36:27Z</time>
      </trkpt>
      <trkpt lat="50.16114" lon="4.11116">
        <ele>214</ele>
        <time>2024-12-27T13:36:36Z</time>
      </trkpt>
      <trkpt lat="50.1612" lon="4.11104">
        <ele>214.7</ele>
        <time>2024-12-27T13:36:46Z</time>
      </trkpt>
      <trkpt lat="50.16125" lon="4.11092">
        <ele>215.4</ele>
        <time>2024-12-27T13:36:58Z</time>
      </trkpt>
      <trkpt lat="50.16132" lon="4.11082">
        <ele>216.2</ele>
        <time>2024-12-27T13:37:08Z</time>
      </trkpt>
      <trkpt lat="50.16139" lon="4.11073">
        <ele>216.8</ele>
        <time>2024-12-27T13:37:18Z</time>
      </trkpt>
      <trkpt lat="50.16146" lon="4.11063">
        <ele>217.3</ele>
        <time>2024-12-27T13:37:28Z</time>
      </trkpt>
      <trkpt lat="50.16152" lon="4.11051">
        <ele>217.9</ele>
        <time>2024-12-27T13:37:38Z</time>
      </trkpt>
      <trkpt lat="50.16158" lon="4.11039">
        <ele>218.3</ele>
        <time>2024-12-27T13:37:47Z</time>
      </trkpt>
      <trkpt lat="50.16166" lon="4.11031">
        <ele>218.8</ele>
        <time>2024-12-27T13:37:56Z</time>
      </trkpt>
      <trkpt lat="50.16172" lon="4.11021">
        <ele>219.2</ele>
        <time>2024-12-27T13:38:05Z</time>
      </trkpt>
      <trkpt lat="50.1618" lon="4.11011">
        <ele>219.6</ele>
        <time>2024-12-27T13:38:15Z</time>
      </trkpt>
      <trkpt lat="50.16187" lon="4.11001">
        <ele>220</ele>
        <time>2024-12-27T13:38:24Z</time>
      </trkpt>
      <trkpt lat="50.16194" lon="4.10992">
        <ele>220.3</ele>
        <time>2024-12-27T13:38:33Z</time>
      </trkpt>
      <trkpt lat="50.162" lon="4.10981">
        <ele>220.6</ele>
        <time>2024-12-27T13:38:43Z</time>
      </trkpt>
      <trkpt lat="50.16208" lon="4.10972">
        <ele>220.9</ele>
        <time>2024-12-27T13:38:52Z</time>
      </trkpt>
      <trkpt lat="50.16213" lon="4.10961">
        <ele>221.2</ele>
        <time>2024-12-27T13:39:00Z</time>
      </trkpt>
      <trkpt lat="50.16221" lon="4.1095">
        <ele>221.5</ele>
        <time>2024-12-27T13:39:09Z</time>
      </trkpt>
      <trkpt lat="50.16228" lon="4.10939">
        <ele>221.9</ele>
        <time>2024-12-27T13:39:19Z</time>
      </trkpt>
      <trkpt lat="50.16235" lon="4.1093">
        <ele>222.2</ele>
        <time>2024-12-27T13:39:28Z</time>
      </trkpt>
      <trkpt lat="50.16242" lon="4.10921">
        <ele>222.5</ele>
        <time>2024-12-27T13:39:37Z</time>
      </trkpt>
      <trkpt lat="50.16248" lon="4.10911">
        <ele>222.8</ele>
        <time>2024-12-27T13:39:45Z</time>
      </trkpt>
      <trkpt lat="50.16255" lon="4.10902">
        <ele>223.1</ele>
        <time>2024-12-27T13:39:54Z</time>
      </trkpt>
      <trkpt lat="50.16262" lon="4.10893">
        <ele>223.4</ele>
        <time>2024-12-27T13:40:03Z</time>
      </trkpt>
      <trkpt lat="50.16269" lon="4.10881">
        <ele>223.6</ele>
        <time>2024-12-27T13:40:13Z</time>
      </trkpt>
      <trkpt lat="50.16277" lon="4.10874">
        <ele>223.9</ele>
        <time>2024-12-27T13:40:22Z</time>
      </trkpt>
      <trkpt lat="50.16284" lon="4.10864">
        <ele>224</ele>
        <time>2024-12-27T13:40:31Z</time>
      </trkpt>
      <trkpt lat="50.16291" lon="4.10854">
        <ele>224.1</ele>
        <time>2024-12-27T13:40:40Z</time>
      </trkpt>
      <trkpt lat="50.16299" lon="4.10847">
        <ele>224</ele>
        <time>2024-12-27T13:40:50Z</time>
      </trkpt>
      <trkpt lat="50.16306" lon="4.10838">
        <ele>223.7</ele>
        <time>2024-12-27T13:41:00Z</time>
      </trkpt>
      <trkpt lat="50.16315" lon="4.10832">
        <ele>223.3</ele>
        <time>2024-12-27T13:41:07Z</time>
      </trkpt>
      <trkpt lat="50.16323" lon="4.10825">
        <ele>222.9</ele>
        <time>2024-12-27T13:41:17Z</time>
      </trkpt>
      <trkpt lat="50.16331" lon="4.10817">
        <ele>222.5</ele>
        <time>2024-12-27T13:41:25Z</time>
      </trkpt>
      <trkpt lat="50.1634" lon="4.10809">
        <ele>222.1</ele>
        <time>2024-12-27T13:41:35Z</time>
      </trkpt>
      <trkpt lat="50.16349" lon="4.10803">
        <ele>221.7</ele>
        <time>2024-12-27T13:41:43Z</time>
      </trkpt>
      <trkpt lat="50.16357" lon="4.10796">
        <ele>221.4</ele>
        <time>2024-12-27T13:41:53Z</time>
      </trkpt>
      <trkpt lat="50.16365" lon="4.10788">
        <ele>221.1</ele>
        <time>2024-12-27T13:42:02Z</time>
      </trkpt>
      <trkpt lat="50.16373" lon="4.1078">
        <ele>220.7</ele>
        <time>2024-12-27T13:42:12Z</time>
      </trkpt>
      <trkpt lat="50.16381" lon="4.10771">
        <ele>220.4</ele>
        <time>2024-12-27T13:42:21Z</time>
      </trkpt>
      <trkpt lat="50.1639" lon="4.10764">
        <ele>220.1</ele>
        <time>2024-12-27T13:42:29Z</time>
      </trkpt>
      <trkpt lat="50.16398" lon="4.10757">
        <ele>219.9</ele>
        <time>2024-12-27T13:42:37Z</time>
      </trkpt>
      <trkpt lat="50.16407" lon="4.10749">
        <ele>219.7</ele>
        <time>2024-12-27T13:42:46Z</time>
      </trkpt>
      <trkpt lat="50.16414" lon="4.10742">
        <ele>219.6</ele>
        <time>2024-12-27T13:42:53Z</time>
      </trkpt>
      <trkpt lat="50.16422" lon="4.10732">
        <ele>219.5</ele>
        <time>2024-12-27T13:43:04Z</time>
      </trkpt>
      <trkpt lat="50.1643" lon="4.10725">
        <ele>219.4</ele>
        <time>2024-12-27T13:43:16Z</time>
      </trkpt>
      <trkpt lat="50.16438" lon="4.10715">
        <ele>219.4</ele>
        <time>2024-12-27T13:43:24Z</time>
      </trkpt>
      <trkpt lat="50.16443" lon="4.10702">
        <ele>219.3</ele>
        <time>2024-12-27T13:43:33Z</time>
      </trkpt>
      <trkpt lat="50.16448" lon="4.10689">
        <ele>219.3</ele>
        <time>2024-12-27T13:43:42Z</time>
      </trkpt>
      <trkpt lat="50.16453" lon="4.10677">
        <ele>219.3</ele>
        <time>2024-12-27T13:43:50Z</time>
      </trkpt>
      <trkpt lat="50.16457" lon="4.10663">
        <ele>219.4</ele>
        <time>2024-12-27T13:43:59Z</time>
      </trkpt>
      <trkpt lat="50.16461" lon="4.1065">
        <ele>219.5</ele>
        <time>2024-12-27T13:44:08Z</time>
      </trkpt>
      <trkpt lat="50.16466" lon="4.10637">
        <ele>219.7</ele>
        <time>2024-12-27T13:44:18Z</time>
      </trkpt>
      <trkpt lat="50.1647" lon="4.10623">
        <ele>220</ele>
        <time>2024-12-27T13:44:26Z</time>
      </trkpt>
      <trkpt lat="50.16475" lon="4.10611">
        <ele>220.3</ele>
        <time>2024-12-27T13:44:34Z</time>
      </trkpt>
      <trkpt lat="50.16481" lon="4.10598">
        <ele>220.7</ele>
        <time>2024-12-27T13:44:43Z</time>
      </trkpt>
      <trkpt lat="50.16487" lon="4.10586">
        <ele>221.1</ele>
        <time>2024-12-27T13:44:51Z</time>
      </trkpt>
      <trkpt lat="50.16491" lon="4.10573">
        <ele>221.5</ele>
        <time>2024-12-27T13:45:04Z</time>
      </trkpt>
      <trkpt lat="50.16497" lon="4.10561">
        <ele>221.8</ele>
        <time>2024-12-27T13:45:14Z</time>
      </trkpt>
      <trkpt lat="50.16502" lon="4.10548">
        <ele>222</ele>
        <time>2024-12-27T13:45:23Z</time>
      </trkpt>
      <trkpt lat="50.16507" lon="4.10537">
        <ele>222</ele>
        <time>2024-12-27T13:45:34Z</time>
      </trkpt>
      <trkpt lat="50.16512" lon="4.10524">
        <ele>221.9</ele>
        <time>2024-12-27T13:45:44Z</time>
      </trkpt>
      <trkpt lat="50.16517" lon="4.10511">
        <ele>221.7</ele>
        <time>2024-12-27T13:45:53Z</time>
      </trkpt>
      <trkpt lat="50.16522" lon="4.10498">
        <ele>221.5</ele>
        <time>2024-12-27T13:46:03Z</time>
      </trkpt>
      <trkpt lat="50.16526" lon="4.10484">
        <ele>221.2</ele>
        <time>2024-12-27T13:46:13Z</time>
      </trkpt>
      <trkpt lat="50.16531" lon="4.10471">
        <ele>220.9</ele>
        <time>2024-12-27T13:46:22Z</time>
      </trkpt>
      <trkpt lat="50.16535" lon="4.10459">
        <ele>220.6</ele>
        <time>2024-12-27T13:46:31Z</time>
      </trkpt>
      <trkpt lat="50.16539" lon="4.10446">
        <ele>220.3</ele>
        <time>2024-12-27T13:46:42Z</time>
      </trkpt>
      <trkpt lat="50.16542" lon="4.10432">
        <ele>219.9</ele>
        <time>2024-12-27T13:46:50Z</time>
      </trkpt>
      <trkpt lat="50.16546" lon="4.10418">
        <ele>219.5</ele>
        <time>2024-12-27T13:46:59Z</time>
      </trkpt>
      <trkpt lat="50.16552" lon="4.10405">
        <ele>219.1</ele>
        <time>2024-12-27T13:47:09Z</time>
      </trkpt>
      <trkpt lat="50.16557" lon="4.10393">
        <ele>218.7</ele>
        <time>2024-12-27T13:47:18Z</time>
      </trkpt>
      <trkpt lat="50.16563" lon="4.10381">
        <ele>218.3</ele>
        <time>2024-12-27T13:47:27Z</time>
      </trkpt>
      <trkpt lat="50.16569" lon="4.10367">
        <ele>217.9</ele>
        <time>2024-12-27T13:47:35Z</time>
      </trkpt>
      <trkpt lat="50.16574" lon="4.10354">
        <ele>217.6</ele>
        <time>2024-12-27T13:47:44Z</time>
      </trkpt>
      <trkpt lat="50.16581" lon="4.10343">
        <ele>217.2</ele>
        <time>2024-12-27T13:47:53Z</time>
      </trkpt>
      <trkpt lat="50.16588" lon="4.10333">
        <ele>216.9</ele>
        <time>2024-12-27T13:48:02Z</time>
      </trkpt>
      <trkpt lat="50.16594" lon="4.10323">
        <ele>216.6</ele>
        <time>2024-12-27T13:48:11Z</time>
      </trkpt>
      <trkpt lat="50.16603" lon="4.10314">
        <ele>216.3</ele>
        <time>2024-12-27T13:48:20Z</time>
      </trkpt>
      <trkpt lat="50.1661" lon="4.10304">
        <ele>216</ele>
        <time>2024-12-27T13:48:30Z</time>
      </trkpt>
      <trkpt lat="50.16618" lon="4.10295">
        <ele>215.6</ele>
        <time>2024-12-27T13:48:39Z</time>
      </trkpt>
      <trkpt lat="50.16625" lon="4.10286">
        <ele>215.3</ele>
        <time>2024-12-27T13:48:48Z</time>
      </trkpt>
      <trkpt lat="50.16632" lon="4.10277">
        <ele>214.9</ele>
        <time>2024-12-27T13:48:57Z</time>
      </trkpt>
      <trkpt lat="50.16639" lon="4.10268">
        <ele>214.5</ele>
        <time>2024-12-27T13:49:07Z</time>
      </trkpt>
      <trkpt lat="50.16647" lon="4.1026">
        <ele>214.1</ele>
        <time>2024-12-27T13:49:17Z</time>
      </trkpt>
      <trkpt lat="50.16654" lon="4.1025">
        <ele>213.7</ele>
        <time>2024-12-27T13:49:26Z</time>
      </trkpt>
      <trkpt lat="50.16662" lon="4.10242">
        <ele>213.3</ele>
        <time>2024-12-27T13:49:35Z</time>
      </trkpt>
      <trkpt lat="50.16671" lon="4.10235">
        <ele>212.9</ele>
        <time>2024-12-27T13:49:43Z</time>
      </trkpt>
      <trkpt lat="50.16678" lon="4.10226">
        <ele>212.6</ele>
        <time>2024-12-27T13:49:53Z</time>
      </trkpt>
      <trkpt lat="50.16684" lon="4.10215">
        <ele>212.4</ele>
        <time>2024-12-27T13:50:02Z</time>
      </trkpt>
      <trkpt lat="50.1669" lon="4.10204">
        <ele>212.3</ele>
        <time>2024-12-27T13:50:13Z</time>
      </trkpt>
      <trkpt lat="50.16697" lon="4.10194">
        <ele>212.2</ele>
        <time>2024-12-27T13:50:22Z</time>
      </trkpt>
      <trkpt lat="50.16703" lon="4.10183">
        <ele>212.2</ele>
        <time>2024-12-27T13:50:30Z</time>
      </trkpt>
      <trkpt lat="50.16709" lon="4.10173">
        <ele>212.3</ele>
        <time>2024-12-27T13:50:38Z</time>
      </trkpt>
      <trkpt lat="50.16715" lon="4.10162">
        <ele>212.3</ele>
        <time>2024-12-27T13:50:46Z</time>
      </trkpt>
      <trkpt lat="50.16722" lon="4.10152">
        <ele>212.5</ele>
        <time>2024-12-27T13:50:56Z</time>
      </trkpt>
      <trkpt lat="50.16724" lon="4.10146">
        <ele>212.6</ele>
        <time>2024-12-27T13:51:07Z</time>
      </trkpt>
      <trkpt lat="50.16725" lon="4.10144">
        <ele>212.6</ele>
        <time>2024-12-27T13:51:08Z</time>
      </trkpt>
      <trkpt lat="50.16726" lon="4.10142">
        <ele>212.7</ele>
        <time>2024-12-27T13:51:09Z</time>
      </trkpt>
      <trkpt lat="50.16727" lon="4.1014">
        <ele>212.7</ele>
        <time>2024-12-27T13:51:10Z</time>
      </trkpt>
      <trkpt lat="50.16733" lon="4.10129">
        <ele>212.9</ele>
        <time>2024-12-27T13:51:18Z</time>
      </trkpt>
      <trkpt lat="50.1674" lon="4.10119">
        <ele>213.2</ele>
        <time>2024-12-27T13:51:26Z</time>
      </trkpt>
      <trkpt lat="50.16745" lon="4.10107">
        <ele>213.4</ele>
        <time>2024-12-27T13:51:35Z</time>
      </trkpt>
      <trkpt lat="50.1675" lon="4.10096">
        <ele>213.6</ele>
        <time>2024-12-27T13:51:44Z</time>
      </trkpt>
      <trkpt lat="50.16756" lon="4.10084">
        <ele>213.9</ele>
        <time>2024-12-27T13:51:55Z</time>
      </trkpt>
      <trkpt lat="50.16761" lon="4.10071">
        <ele>214.1</ele>
        <time>2024-12-27T13:52:05Z</time>
      </trkpt>
      <trkpt lat="50.16766" lon="4.10058">
        <ele>214.2</ele>
        <time>2024-12-27T13:52:14Z</time>
      </trkpt>
      <trkpt lat="50.16771" lon="4.10046">
        <ele>214.3</ele>
        <time>2024-12-27T13:52:23Z</time>
      </trkpt>
      <trkpt lat="50.16775" lon="4.10032">
        <ele>214.3</ele>
        <time>2024-12-27T13:52:31Z</time>
      </trkpt>
      <trkpt lat="50.16776" lon="4.10018">
        <ele>214.2</ele>
        <time>2024-12-27T13:52:38Z</time>
      </trkpt>
      <trkpt lat="50.16779" lon="4.10003">
        <ele>214</ele>
        <time>2024-12-27T13:52:47Z</time>
      </trkpt>
      <trkpt lat="50.16783" lon="4.09989">
        <ele>213.6</ele>
        <time>2024-12-27T13:52:58Z</time>
      </trkpt>
      <trkpt lat="50.16787" lon="4.09976">
        <ele>213.3</ele>
        <time>2024-12-27T13:53:08Z</time>
      </trkpt>
      <trkpt lat="50.16788" lon="4.0996">
        <ele>213</ele>
        <time>2024-12-27T13:53:16Z</time>
      </trkpt>
      <trkpt lat="50.16792" lon="4.09948">
        <ele>212.8</ele>
        <time>2024-12-27T13:53:28Z</time>
      </trkpt>
      <trkpt lat="50.16794" lon="4.09933">
        <ele>212.6</ele>
        <time>2024-12-27T13:53:38Z</time>
      </trkpt>
      <trkpt lat="50.16796" lon="4.09918">
        <ele>212.4</ele>
        <time>2024-12-27T13:53:46Z</time>
      </trkpt>
      <trkpt lat="50.16799" lon="4.09904">
        <ele>212.2</ele>
        <time>2024-12-27T13:53:54Z</time>
      </trkpt>
      <trkpt lat="50.16807" lon="4.09895">
        <ele>212.1</ele>
        <time>2024-12-27T13:54:02Z</time>
      </trkpt>
      <trkpt lat="50.16815" lon="4.09888">
        <ele>212</ele>
        <time>2024-12-27T13:54:09Z</time>
      </trkpt>
      <trkpt lat="50.16823" lon="4.09881">
        <ele>211.7</ele>
        <time>2024-12-27T13:54:17Z</time>
      </trkpt>
      <trkpt lat="50.16832" lon="4.09879">
        <ele>211.4</ele>
        <time>2024-12-27T13:54:28Z</time>
      </trkpt>
      <trkpt lat="50.16841" lon="4.09876">
        <ele>211</ele>
        <time>2024-12-27T13:54:39Z</time>
      </trkpt>
      <trkpt lat="50.1685" lon="4.09873">
        <ele>210.8</ele>
        <time>2024-12-27T13:54:47Z</time>
      </trkpt>
      <trkpt lat="50.16859" lon="4.0987">
        <ele>210.6</ele>
        <time>2024-12-27T13:54:56Z</time>
      </trkpt>
      <trkpt lat="50.16867" lon="4.09864">
        <ele>210.4</ele>
        <time>2024-12-27T13:55:03Z</time>
      </trkpt>
      <trkpt lat="50.16877" lon="4.09862">
        <ele>210.2</ele>
        <time>2024-12-27T13:55:13Z</time>
      </trkpt>
      <trkpt lat="50.16886" lon="4.0986">
        <ele>210.1</ele>
        <time>2024-12-27T13:55:22Z</time>
      </trkpt>
      <trkpt lat="50.16895" lon="4.09858">
        <ele>209.9</ele>
        <time>2024-12-27T13:55:32Z</time>
      </trkpt>
      <trkpt lat="50.16905" lon="4.09859">
        <ele>209.8</ele>
        <time>2024-12-27T13:55:41Z</time>
      </trkpt>
      <trkpt lat="50.16915" lon="4.09858">
        <ele>209.7</ele>
        <time>2024-12-27T13:55:49Z</time>
      </trkpt>
      <trkpt lat="50.16924" lon="4.09856">
        <ele>209.6</ele>
        <time>2024-12-27T13:55:57Z</time>
      </trkpt>
      <trkpt lat="50.16933" lon="4.09854">
        <ele>209.4</ele>
        <time>2024-12-27T13:56:05Z</time>
      </trkpt>
      <trkpt lat="50.16943" lon="4.09853">
        <ele>209.3</ele>
        <time>2024-12-27T13:56:14Z</time>
      </trkpt>
      <trkpt lat="50.16952" lon="4.09851">
        <ele>209.1</ele>
        <time>2024-12-27T13:56:21Z</time>
      </trkpt>
      <trkpt lat="50.16961" lon="4.09847">
        <ele>208.9</ele>
        <time>2024-12-27T13:56:30Z</time>
      </trkpt>
      <trkpt lat="50.16971" lon="4.09847">
        <ele>208.7</ele>
        <time>2024-12-27T13:56:37Z</time>
      </trkpt>
      <trkpt lat="50.16981" lon="4.09846">
        <ele>208.5</ele>
        <time>2024-12-27T13:56:46Z</time>
      </trkpt>
      <trkpt lat="50.1699" lon="4.09845">
        <ele>208.3</ele>
        <time>2024-12-27T13:56:54Z</time>
      </trkpt>
      <trkpt lat="50.16999" lon="4.09851">
        <ele>208.1</ele>
        <time>2024-12-27T13:57:04Z</time>
      </trkpt>
      <trkpt lat="50.17008" lon="4.09856">
        <ele>208</ele>
        <time>2024-12-27T13:57:12Z</time>
      </trkpt>
      <trkpt lat="50.17017" lon="4.09855">
        <ele>207.9</ele>
        <time>2024-12-27T13:57:20Z</time>
      </trkpt>
      <trkpt lat="50.17026" lon="4.09856">
        <ele>207.8</ele>
        <time>2024-12-27T13:57:29Z</time>
      </trkpt>
      <trkpt lat="50.17035" lon="4.09855">
        <ele>207.7</ele>
        <time>2024-12-27T13:57:37Z</time>
      </trkpt>
      <trkpt lat="50.17044" lon="4.09855">
        <ele>207.6</ele>
        <time>2024-12-27T13:57:45Z</time>
      </trkpt>
      <trkpt lat="50.17054" lon="4.09854">
        <ele>207.5</ele>
        <time>2024-12-27T13:57:54Z</time>
      </trkpt>
      <trkpt lat="50.17063" lon="4.09854">
        <ele>207.4</ele>
        <time>2024-12-27T13:58:04Z</time>
      </trkpt>
      <trkpt lat="50.17073" lon="4.09854">
        <ele>207.3</ele>
        <time>2024-12-27T13:58:17Z</time>
      </trkpt>
      <trkpt lat="50.17082" lon="4.09854">
        <ele>207.3</ele>
        <time>2024-12-27T13:58:24Z</time>
      </trkpt>
      <trkpt lat="50.17092" lon="4.09852">
        <ele>207.2</ele>
        <time>2024-12-27T13:58:32Z</time>
      </trkpt>
      <trkpt lat="50.17101" lon="4.09852">
        <ele>207.2</ele>
        <time>2024-12-27T13:58:41Z</time>
      </trkpt>
      <trkpt lat="50.17111" lon="4.0985">
        <ele>207.1</ele>
        <time>2024-12-27T13:58:50Z</time>
      </trkpt>
      <trkpt lat="50.1712" lon="4.09851">
        <ele>207</ele>
        <time>2024-12-27T13:59:00Z</time>
      </trkpt>
      <trkpt lat="50.1713" lon="4.09851">
        <ele>206.9</ele>
        <time>2024-12-27T13:59:09Z</time>
      </trkpt>
      <trkpt lat="50.17139" lon="4.0985">
        <ele>206.8</ele>
        <time>2024-12-27T13:59:18Z</time>
      </trkpt>
      <trkpt lat="50.17148" lon="4.09851">
        <ele>206.7</ele>
        <time>2024-12-27T13:59:25Z</time>
      </trkpt>
      <trkpt lat="50.17157" lon="4.09851">
        <ele>206.4</ele>
        <time>2024-12-27T13:59:33Z</time>
      </trkpt>
      <trkpt lat="50.17167" lon="4.09849">
        <ele>206.1</ele>
        <time>2024-12-27T13:59:43Z</time>
      </trkpt>
      <trkpt lat="50.17169" lon="4.09848">
        <ele>206.1</ele>
        <time>2024-12-27T13:59:51Z</time>
      </trkpt>
      <trkpt lat="50.17169" lon="4.09848">
        <ele>206.1</ele>
        <time>2024-12-27T13:59:52Z</time>
      </trkpt>
      <trkpt lat="50.17169" lon="4.09848">
        <ele>206</ele>
        <time>2024-12-27T13:59:53Z</time>
      </trkpt>
      <trkpt lat="50.17169" lon="4.09847">
        <ele>206</ele>
        <time>2024-12-27T13:59:54Z</time>
      </trkpt>
      <trkpt lat="50.1717" lon="4.09847">
        <ele>206</ele>
        <time>2024-12-27T13:59:55Z</time>
      </trkpt>
      <trkpt lat="50.1718" lon="4.09845">
        <ele>205.7</ele>
        <time>2024-12-27T14:00:05Z</time>
      </trkpt>
      <trkpt lat="50.17189" lon="4.09845">
        <ele>205.3</ele>
        <time>2024-12-27T14:00:17Z</time>
      </trkpt>
      <trkpt lat="50.17199" lon="4.09844">
        <ele>204.9</ele>
        <time>2024-12-27T14:00:32Z</time>
      </trkpt>
      <trkpt lat="50.17208" lon="4.09843">
        <ele>204.5</ele>
        <time>2024-12-27T14:00:41Z</time>
      </trkpt>
      <trkpt lat="50.17218" lon="4.09842">
        <ele>204.1</ele>
        <time>2024-12-27T14:00:50Z</time>
      </trkpt>
      <trkpt lat="50.17228" lon="4.09842">
        <ele>203.6</ele>
        <time>2024-12-27T14:00:58Z</time>
      </trkpt>
      <trkpt lat="50.17237" lon="4.09841">
        <ele>203.2</ele>
        <time>2024-12-27T14:01:06Z</time>
      </trkpt>
      <trkpt lat="50.17246" lon="4.09841">
        <ele>202.8</ele>
        <time>2024-12-27T14:01:15Z</time>
      </trkpt>
      <trkpt lat="50.17256" lon="4.0984">
        <ele>202.4</ele>
        <time>2024-12-27T14:01:25Z</time>
      </trkpt>
      <trkpt lat="50.17265" lon="4.09838">
        <ele>202</ele>
        <time>2024-12-27T14:01:35Z</time>
      </trkpt>
      <trkpt lat="50.17274" lon="4.09838">
        <ele>201.7</ele>
        <time>2024-12-27T14:01:43Z</time>
      </trkpt>
      <trkpt lat="50.17283" lon="4.09838">
        <ele>201.5</ele>
        <time>2024-12-27T14:01:51Z</time>
      </trkpt>
      <trkpt lat="50.17293" lon="4.09837">
        <ele>201.2</ele>
        <time>2024-12-27T14:01:59Z</time>
      </trkpt>
      <trkpt lat="50.17303" lon="4.09837">
        <ele>200.9</ele>
        <time>2024-12-27T14:02:08Z</time>
      </trkpt>
      <trkpt lat="50.17312" lon="4.09836">
        <ele>200.7</ele>
        <time>2024-12-27T14:02:17Z</time>
      </trkpt>
      <trkpt lat="50.17322" lon="4.09835">
        <ele>200.5</ele>
        <time>2024-12-27T14:02:26Z</time>
      </trkpt>
      <trkpt lat="50.17332" lon="4.09834">
        <ele>200.3</ele>
        <time>2024-12-27T14:02:35Z</time>
      </trkpt>
      <trkpt lat="50.17342" lon="4.09833">
        <ele>200.1</ele>
        <time>2024-12-27T14:02:44Z</time>
      </trkpt>
      <trkpt lat="50.17351" lon="4.09831">
        <ele>200</ele>
        <time>2024-12-27T14:02:54Z</time>
      </trkpt>
      <trkpt lat="50.1736" lon="4.09833">
        <ele>199.8</ele>
        <time>2024-12-27T14:03:02Z</time>
      </trkpt>
      <trkpt lat="50.17369" lon="4.09832">
        <ele>199.6</ele>
        <time>2024-12-27T14:03:12Z</time>
      </trkpt>
      <trkpt lat="50.17378" lon="4.0983">
        <ele>199.5</ele>
        <time>2024-12-27T14:03:26Z</time>
      </trkpt>
      <trkpt lat="50.17387" lon="4.09829">
        <ele>199.3</ele>
        <time>2024-12-27T14:03:35Z</time>
      </trkpt>
      <trkpt lat="50.17397" lon="4.09828">
        <ele>199.2</ele>
        <time>2024-12-27T14:03:43Z</time>
      </trkpt>
      <trkpt lat="50.17407" lon="4.09828">
        <ele>199</ele>
        <time>2024-12-27T14:03:51Z</time>
      </trkpt>
      <trkpt lat="50.17417" lon="4.09827">
        <ele>198.8</ele>
        <time>2024-12-27T14:03:59Z</time>
      </trkpt>
      <trkpt lat="50.17426" lon="4.09828">
        <ele>198.6</ele>
        <time>2024-12-27T14:04:08Z</time>
      </trkpt>
      <trkpt lat="50.17435" lon="4.09828">
        <ele>198.4</ele>
        <time>2024-12-27T14:04:18Z</time>
      </trkpt>
      <trkpt lat="50.17445" lon="4.09827">
        <ele>198.1</ele>
        <time>2024-12-27T14:04:27Z</time>
      </trkpt>
      <trkpt lat="50.17454" lon="4.09828">
        <ele>197.8</ele>
        <time>2024-12-27T14:04:37Z</time>
      </trkpt>
      <trkpt lat="50.17463" lon="4.09826">
        <ele>197.5</ele>
        <time>2024-12-27T14:04:52Z</time>
      </trkpt>
      <trkpt lat="50.17473" lon="4.09823">
        <ele>197.2</ele>
        <time>2024-12-27T14:05:00Z</time>
      </trkpt>
      <trkpt lat="50.17483" lon="4.09823">
        <ele>197</ele>
        <time>2024-12-27T14:05:08Z</time>
      </trkpt>
      <trkpt lat="50.17493" lon="4.09822">
        <ele>196.7</ele>
        <time>2024-12-27T14:05:20Z</time>
      </trkpt>
      <trkpt lat="50.17502" lon="4.09822">
        <ele>196.6</ele>
        <time>2024-12-27T14:05:27Z</time>
      </trkpt>
      <trkpt lat="50.17511" lon="4.09823">
        <ele>196.4</ele>
        <time>2024-12-27T14:05:34Z</time>
      </trkpt>
      <trkpt lat="50.17515" lon="4.09836">
        <ele>196.7</ele>
        <time>2024-12-27T14:05:44Z</time>
      </trkpt>
      <trkpt lat="50.17513" lon="4.0985">
        <ele>196.8</ele>
        <time>2024-12-27T14:05:58Z</time>
      </trkpt>
      <trkpt lat="50.17511" lon="4.09864">
        <ele>196.8</ele>
        <time>2024-12-27T14:06:08Z</time>
      </trkpt>
      <trkpt lat="50.1751" lon="4.09878">
        <ele>196.8</ele>
        <time>2024-12-27T14:06:19Z</time>
      </trkpt>
      <trkpt lat="50.17508" lon="4.09893">
        <ele>196.8</ele>
        <time>2024-12-27T14:06:27Z</time>
      </trkpt>
      <trkpt lat="50.17512" lon="4.09907">
        <ele>196.7</ele>
        <time>2024-12-27T14:06:36Z</time>
      </trkpt>
      <trkpt lat="50.17512" lon="4.09921">
        <ele>196.6</ele>
        <time>2024-12-27T14:06:44Z</time>
      </trkpt>
      <trkpt lat="50.17513" lon="4.09936">
        <ele>196.5</ele>
        <time>2024-12-27T14:06:52Z</time>
      </trkpt>
      <trkpt lat="50.17513" lon="4.0995">
        <ele>196.3</ele>
        <time>2024-12-27T14:07:01Z</time>
      </trkpt>
      <trkpt lat="50.17515" lon="4.09965">
        <ele>196.2</ele>
        <time>2024-12-27T14:07:10Z</time>
      </trkpt>
      <trkpt lat="50.17517" lon="4.09981">
        <ele>196</ele>
        <time>2024-12-27T14:07:20Z</time>
      </trkpt>
      <trkpt lat="50.1752" lon="4.09995">
        <ele>195.8</ele>
        <time>2024-12-27T14:07:29Z</time>
      </trkpt>
      <trkpt lat="50.17522" lon="4.1001">
        <ele>195.6</ele>
        <time>2024-12-27T14:07:39Z</time>
      </trkpt>
      <trkpt lat="50.17525" lon="4.10023">
        <ele>195.3</ele>
        <time>2024-12-27T14:07:48Z</time>
      </trkpt>
      <trkpt lat="50.17527" lon="4.10039">
        <ele>194.9</ele>
        <time>2024-12-27T14:07:57Z</time>
      </trkpt>
      <trkpt lat="50.17529" lon="4.10054">
        <ele>194.5</ele>
        <time>2024-12-27T14:08:09Z</time>
      </trkpt>
      <trkpt lat="50.17531" lon="4.10067">
        <ele>194.2</ele>
        <time>2024-12-27T14:08:20Z</time>
      </trkpt>
      <trkpt lat="50.17535" lon="4.10081">
        <ele>193.8</ele>
        <time>2024-12-27T14:08:31Z</time>
      </trkpt>
      <trkpt lat="50.17537" lon="4.10095">
        <ele>193.3</ele>
        <time>2024-12-27T14:08:40Z</time>
      </trkpt>
      <trkpt lat="50.1754" lon="4.1011">
        <ele>192.9</ele>
        <time>2024-12-27T14:08:51Z</time>
      </trkpt>
      <trkpt lat="50.17541" lon="4.10124">
        <ele>192.6</ele>
        <time>2024-12-27T14:09:00Z</time>
      </trkpt>
      <trkpt lat="50.17544" lon="4.10138">
        <ele>192.3</ele>
        <time>2024-12-27T14:09:12Z</time>
      </trkpt>
      <trkpt lat="50.17545" lon="4.10153">
        <ele>192</ele>
        <time>2024-12-27T14:09:21Z</time>
      </trkpt>
      <trkpt lat="50.17546" lon="4.10168">
        <ele>191.8</ele>
        <time>2024-12-27T14:09:31Z</time>
      </trkpt>
      <trkpt lat="50.1755" lon="4.10182">
        <ele>191.7</ele>
        <time>2024-12-27T14:09:40Z</time>
      </trkpt>
      <trkpt lat="50.17552" lon="4.10197">
        <ele>191.6</ele>
        <time>2024-12-27T14:09:53Z</time>
      </trkpt>
      <trkpt lat="50.17553" lon="4.10211">
        <ele>191.6</ele>
        <time>2024-12-27T14:10:01Z</time>
      </trkpt>
      <trkpt lat="50.17557" lon="4.10226">
        <ele>191.6</ele>
        <time>2024-12-27T14:10:11Z</time>
      </trkpt>
      <trkpt lat="50.1756" lon="4.1024">
        <ele>191.6</ele>
        <time>2024-12-27T14:10:20Z</time>
      </trkpt>
      <trkpt lat="50.17562" lon="4.10254">
        <ele>191.6</ele>
        <time>2024-12-27T14:10:30Z</time>
      </trkpt>
      <trkpt lat="50.17566" lon="4.10267">
        <ele>191.6</ele>
        <time>2024-12-27T14:10:39Z</time>
      </trkpt>
      <trkpt lat="50.17565" lon="4.10282">
        <ele>191.6</ele>
        <time>2024-12-27T14:10:50Z</time>
      </trkpt>
      <trkpt lat="50.17569" lon="4.10296">
        <ele>191.6</ele>
        <time>2024-12-27T14:11:00Z</time>
      </trkpt>
      <trkpt lat="50.1757" lon="4.10311">
        <ele>191.7</ele>
        <time>2024-12-27T14:11:10Z</time>
      </trkpt>
      <trkpt lat="50.17575" lon="4.10324">
        <ele>191.7</ele>
        <time>2024-12-27T14:11:22Z</time>
      </trkpt>
      <trkpt lat="50.17578" lon="4.10339">
        <ele>191.7</ele>
        <time>2024-12-27T14:11:34Z</time>
      </trkpt>
      <trkpt lat="50.17584" lon="4.10351">
        <ele>191.7</ele>
        <time>2024-12-27T14:11:44Z</time>
      </trkpt>
      <trkpt lat="50.17591" lon="4.10361">
        <ele>191.7</ele>
        <time>2024-12-27T14:11:54Z</time>
      </trkpt>
      <trkpt lat="50.17598" lon="4.1037">
        <ele>191.7</ele>
        <time>2024-12-27T14:12:03Z</time>
      </trkpt>
      <trkpt lat="50.17604" lon="4.10382">
        <ele>191.7</ele>
        <time>2024-12-27T14:12:13Z</time>
      </trkpt>
      <trkpt lat="50.17606" lon="4.10396">
        <ele>191.7</ele>
        <time>2024-12-27T14:12:23Z</time>
      </trkpt>
      <trkpt lat="50.17608" lon="4.1041">
        <ele>191.6</ele>
        <time>2024-12-27T14:12:34Z</time>
      </trkpt>
      <trkpt lat="50.17609" lon="4.10425">
        <ele>191.6</ele>
        <time>2024-12-27T14:12:44Z</time>
      </trkpt>
      <trkpt lat="50.17611" lon="4.1044">
        <ele>191.6</ele>
        <time>2024-12-27T14:12:53Z</time>
      </trkpt>
      <trkpt lat="50.17612" lon="4.10454">
        <ele>191.7</ele>
        <time>2024-12-27T14:13:02Z</time>
      </trkpt>
      <trkpt lat="50.17614" lon="4.10469">
        <ele>191.8</ele>
        <time>2024-12-27T14:13:12Z</time>
      </trkpt>
      <trkpt lat="50.17615" lon="4.10483">
        <ele>191.9</ele>
        <time>2024-12-27T14:13:20Z</time>
      </trkpt>
      <trkpt lat="50.17615" lon="4.10499">
        <ele>192</ele>
        <time>2024-12-27T14:13:28Z</time>
      </trkpt>
      <trkpt lat="50.17615" lon="4.10514">
        <ele>192.2</ele>
        <time>2024-12-27T14:13:39Z</time>
      </trkpt>
      <trkpt lat="50.17615" lon="4.10529">
        <ele>192.3</ele>
        <time>2024-12-27T14:13:48Z</time>
      </trkpt>
      <trkpt lat="50.17616" lon="4.10543">
        <ele>192.4</ele>
        <time>2024-12-27T14:13:58Z</time>
      </trkpt>
      <trkpt lat="50.17616" lon="4.10558">
        <ele>192.6</ele>
        <time>2024-12-27T14:14:08Z</time>
      </trkpt>
      <trkpt lat="50.17617" lon="4.10573">
        <ele>192.8</ele>
        <time>2024-12-27T14:14:17Z</time>
      </trkpt>
      <trkpt lat="50.17616" lon="4.10588">
        <ele>193</ele>
        <time>2024-12-27T14:14:27Z</time>
      </trkpt>
      <trkpt lat="50.17615" lon="4.10603">
        <ele>193.1</ele>
        <time>2024-12-27T14:14:37Z</time>
      </trkpt>
      <trkpt lat="50.17615" lon="4.10617">
        <ele>193.3</ele>
        <time>2024-12-27T14:14:46Z</time>
      </trkpt>
      <trkpt lat="50.17614" lon="4.10632">
        <ele>193.5</ele>
        <time>2024-12-27T14:14:57Z</time>
      </trkpt>
      <trkpt lat="50.17613" lon="4.10646">
        <ele>193.6</ele>
        <time>2024-12-27T14:15:08Z</time>
      </trkpt>
      <trkpt lat="50.17611" lon="4.1066">
        <ele>193.7</ele>
        <time>2024-12-27T14:15:17Z</time>
      </trkpt>
      <trkpt lat="50.17609" lon="4.10674">
        <ele>193.9</ele>
        <time>2024-12-27T14:15:26Z</time>
      </trkpt>
      <trkpt lat="50.17607" lon="4.10689">
        <ele>194</ele>
        <time>2024-12-27T14:15:36Z</time>
      </trkpt>
      <trkpt lat="50.17606" lon="4.10704">
        <ele>194.2</ele>
        <time>2024-12-27T14:15:46Z</time>
      </trkpt>
      <trkpt lat="50.17604" lon="4.10718">
        <ele>194.3</ele>
        <time>2024-12-27T14:15:55Z</time>
      </trkpt>
      <trkpt lat="50.17602" lon="4.10733">
        <ele>194.5</ele>
        <time>2024-12-27T14:16:04Z</time>
      </trkpt>
      <trkpt lat="50.17602" lon="4.10748">
        <ele>194.7</ele>
        <time>2024-12-27T14:16:13Z</time>
      </trkpt>
      <trkpt lat="50.17601" lon="4.10763">
        <ele>194.8</ele>
        <time>2024-12-27T14:16:24Z</time>
      </trkpt>
      <trkpt lat="50.17601" lon="4.10777">
        <ele>195</ele>
        <time>2024-12-27T14:16:32Z</time>
      </trkpt>
      <trkpt lat="50.17601" lon="4.10791">
        <ele>195.2</ele>
        <time>2024-12-27T14:16:41Z</time>
      </trkpt>
      <trkpt lat="50.176" lon="4.10806">
        <ele>195.5</ele>
        <time>2024-12-27T14:16:51Z</time>
      </trkpt>
      <trkpt lat="50.17597" lon="4.1082">
        <ele>195.8</ele>
        <time>2024-12-27T14:17:00Z</time>
      </trkpt>
      <trkpt lat="50.17594" lon="4.10833">
        <ele>196.1</ele>
        <time>2024-12-27T14:17:09Z</time>
      </trkpt>
      <trkpt lat="50.1759" lon="4.10848">
        <ele>196.4</ele>
        <time>2024-12-27T14:17:19Z</time>
      </trkpt>
      <trkpt lat="50.17587" lon="4.10862">
        <ele>196.7</ele>
        <time>2024-12-27T14:17:29Z</time>
      </trkpt>
      <trkpt lat="50.17584" lon="4.10874">
        <ele>197</ele>
        <time>2024-12-27T14:17:46Z</time>
      </trkpt>
      <trkpt lat="50.17584" lon="4.10874">
        <ele>197</ele>
        <time>2024-12-27T14:17:47Z</time>
      </trkpt>
      <trkpt lat="50.17584" lon="4.10875">
        <ele>197</ele>
        <time>2024-12-27T14:17:48Z</time>
      </trkpt>
      <trkpt lat="50.17583" lon="4.10876">
        <ele>197.1</ele>
        <time>2024-12-27T14:17:49Z</time>
      </trkpt>
      <trkpt lat="50.17582" lon="4.10877">
        <ele>197.1</ele>
        <time>2024-12-27T14:17:50Z</time>
      </trkpt>
      <trkpt lat="50.17578" lon="4.10889">
        <ele>197.5</ele>
        <time>2024-12-27T14:17:59Z</time>
      </trkpt>
      <trkpt lat="50.17573" lon="4.10903">
        <ele>197.9</ele>
        <time>2024-12-27T14:18:09Z</time>
      </trkpt>
      <trkpt lat="50.17568" lon="4.10916">
        <ele>198.4</ele>
        <time>2024-12-27T14:18:19Z</time>
      </trkpt>
      <trkpt lat="50.17563" lon="4.10929">
        <ele>198.9</ele>
        <time>2024-12-27T14:18:28Z</time>
      </trkpt>
      <trkpt lat="50.17558" lon="4.10941">
        <ele>199.3</ele>
        <time>2024-12-27T14:18:37Z</time>
      </trkpt>
      <trkpt lat="50.17554" lon="4.10954">
        <ele>199.7</ele>
        <time>2024-12-27T14:18:47Z</time>
      </trkpt>
      <trkpt lat="50.17548" lon="4.10967">
        <ele>200.1</ele>
        <time>2024-12-27T14:18:57Z</time>
      </trkpt>
      <trkpt lat="50.17543" lon="4.10979">
        <ele>200.4</ele>
        <time>2024-12-27T14:19:07Z</time>
      </trkpt>
      <trkpt lat="50.17538" lon="4.10991">
        <ele>200.8</ele>
        <time>2024-12-27T14:19:16Z</time>
      </trkpt>
      <trkpt lat="50.17533" lon="4.11003">
        <ele>201.1</ele>
        <time>2024-12-27T14:19:25Z</time>
      </trkpt>
      <trkpt lat="50.17528" lon="4.11015">
        <ele>201.5</ele>
        <time>2024-12-27T14:19:34Z</time>
      </trkpt>
      <trkpt lat="50.17523" lon="4.11027">
        <ele>201.9</ele>
        <time>2024-12-27T14:19:43Z</time>
      </trkpt>
      <trkpt lat="50.17518" lon="4.11039">
        <ele>202.3</ele>
        <time>2024-12-27T14:19:52Z</time>
      </trkpt>
      <trkpt lat="50.17515" lon="4.11052">
        <ele>202.6</ele>
        <time>2024-12-27T14:20:01Z</time>
      </trkpt>
      <trkpt lat="50.17512" lon="4.11067">
        <ele>203</ele>
        <time>2024-12-27T14:20:11Z</time>
      </trkpt>
      <trkpt lat="50.17511" lon="4.11081">
        <ele>203.3</ele>
        <time>2024-12-27T14:20:20Z</time>
      </trkpt>
      <trkpt lat="50.17512" lon="4.11096">
        <ele>203.7</ele>
        <time>2024-12-27T14:20:30Z</time>
      </trkpt>
      <trkpt lat="50.17515" lon="4.1111">
        <ele>204</ele>
        <time>2024-12-27T14:20:39Z</time>
      </trkpt>
      <trkpt lat="50.1752" lon="4.11122">
        <ele>204.3</ele>
        <time>2024-12-27T14:20:50Z</time>
      </trkpt>
      <trkpt lat="50.17525" lon="4.11134">
        <ele>204.5</ele>
        <time>2024-12-27T14:21:00Z</time>
      </trkpt>
      <trkpt lat="50.17531" lon="4.11145">
        <ele>204.8</ele>
        <time>2024-12-27T14:21:09Z</time>
      </trkpt>
      <trkpt lat="50.17536" lon="4.11158">
        <ele>205</ele>
        <time>2024-12-27T14:21:20Z</time>
      </trkpt>
      <trkpt lat="50.17542" lon="4.1117">
        <ele>205.2</ele>
        <time>2024-12-27T14:21:30Z</time>
      </trkpt>
      <trkpt lat="50.17548" lon="4.11182">
        <ele>205.3</ele>
        <time>2024-12-27T14:21:40Z</time>
      </trkpt>
      <trkpt lat="50.17555" lon="4.11194">
        <ele>205.5</ele>
        <time>2024-12-27T14:21:50Z</time>
      </trkpt>
      <trkpt lat="50.17561" lon="4.11203">
        <ele>205.7</ele>
        <time>2024-12-27T14:22:00Z</time>
      </trkpt>
      <trkpt lat="50.17567" lon="4.11214">
        <ele>205.8</ele>
        <time>2024-12-27T14:22:10Z</time>
      </trkpt>
      <trkpt lat="50.17573" lon="4.11225">
        <ele>206</ele>
        <time>2024-12-27T14:22:20Z</time>
      </trkpt>
      <trkpt lat="50.17579" lon="4.11237">
        <ele>206.1</ele>
        <time>2024-12-27T14:22:30Z</time>
      </trkpt>
      <trkpt lat="50.17584" lon="4.11249">
        <ele>206.2</ele>
        <time>2024-12-27T14:22:38Z</time>
      </trkpt>
      <trkpt lat="50.1759" lon="4.1126">
        <ele>206.4</ele>
        <time>2024-12-27T14:22:49Z</time>
      </trkpt>
      <trkpt lat="50.17597" lon="4.11271">
        <ele>206.5</ele>
        <time>2024-12-27T14:23:00Z</time>
      </trkpt>
      <trkpt lat="50.17603" lon="4.11283">
        <ele>206.7</ele>
        <time>2024-12-27T14:23:10Z</time>
      </trkpt>
      <trkpt lat="50.17609" lon="4.11295">
        <ele>206.8</ele>
        <time>2024-12-27T14:23:20Z</time>
      </trkpt>
      <trkpt lat="50.17615" lon="4.11308">
        <ele>207</ele>
        <time>2024-12-27T14:23:31Z</time>
      </trkpt>
      <trkpt lat="50.1762" lon="4.1132">
        <ele>207.3</ele>
        <time>2024-12-27T14:23:41Z</time>
      </trkpt>
      <trkpt lat="50.17624" lon="4.11333">
        <ele>207.5</ele>
        <time>2024-12-27T14:23:50Z</time>
      </trkpt>
      <trkpt lat="50.17628" lon="4.11345">
        <ele>207.7</ele>
        <time>2024-12-27T14:24:00Z</time>
      </trkpt>
      <trkpt lat="50.17632" lon="4.11359">
        <ele>207.9</ele>
        <time>2024-12-27T14:24:10Z</time>
      </trkpt>
      <trkpt lat="50.17636" lon="4.11372">
        <ele>208.2</ele>
        <time>2024-12-27T14:24:20Z</time>
      </trkpt>
      <trkpt lat="50.17639" lon="4.11387">
        <ele>208.4</ele>
        <time>2024-12-27T14:24:30Z</time>
      </trkpt>
      <trkpt lat="50.17642" lon="4.11402">
        <ele>208.7</ele>
        <time>2024-12-27T14:24:40Z</time>
      </trkpt>
      <trkpt lat="50.17645" lon="4.11417">
        <ele>208.9</ele>
        <time>2024-12-27T14:24:50Z</time>
      </trkpt>
      <trkpt lat="50.17647" lon="4.11432">
        <ele>209.2</ele>
        <time>2024-12-27T14:25:00Z</time>
      </trkpt>
      <trkpt lat="50.17649" lon="4.11447">
        <ele>209.5</ele>
        <time>2024-12-27T14:25:10Z</time>
      </trkpt>
      <trkpt lat="50.17651" lon="4.11461">
        <ele>209.7</ele>
        <time>2024-12-27T14:25:20Z</time>
      </trkpt>
      <trkpt lat="50.17653" lon="4.11476">
        <ele>210</ele>
        <time>2024-12-27T14:25:31Z</time>
      </trkpt>
      <trkpt lat="50.17655" lon="4.11491">
        <ele>210.2</ele>
        <time>2024-12-27T14:25:42Z</time>
      </trkpt>
      <trkpt lat="50.17657" lon="4.11505">
        <ele>210.4</ele>
        <time>2024-12-27T14:25:51Z</time>
      </trkpt>
      <trkpt lat="50.1766" lon="4.1152">
        <ele>210.6</ele>
        <time>2024-12-27T14:26:01Z</time>
      </trkpt>
      <trkpt lat="50.17662" lon="4.11534">
        <ele>210.8</ele>
        <time>2024-12-27T14:26:11Z</time>
      </trkpt>
      <trkpt lat="50.17664" lon="4.11549">
        <ele>211</ele>
        <time>2024-12-27T14:26:22Z</time>
      </trkpt>
      <trkpt lat="50.17665" lon="4.11563">
        <ele>211.2</ele>
        <time>2024-12-27T14:26:31Z</time>
      </trkpt>
      <trkpt lat="50.17668" lon="4.11577">
        <ele>211.3</ele>
        <time>2024-12-27T14:26:41Z</time>
      </trkpt>
      <trkpt lat="50.1767" lon="4.11591">
        <ele>211.5</ele>
        <time>2024-12-27T14:26:51Z</time>
      </trkpt>
      <trkpt lat="50.17671" lon="4.11605">
        <ele>211.6</ele>
        <time>2024-12-27T14:27:02Z</time>
      </trkpt>
      <trkpt lat="50.17673" lon="4.11621">
        <ele>211.6</ele>
        <time>2024-12-27T14:27:13Z</time>
      </trkpt>
      <trkpt lat="50.17674" lon="4.11635">
        <ele>211.6</ele>
        <time>2024-12-27T14:27:21Z</time>
      </trkpt>
      <trkpt lat="50.17675" lon="4.1165">
        <ele>211.5</ele>
        <time>2024-12-27T14:27:31Z</time>
      </trkpt>
      <trkpt lat="50.17676" lon="4.11665">
        <ele>211.5</ele>
        <time>2024-12-27T14:27:42Z</time>
      </trkpt>
      <trkpt lat="50.17677" lon="4.1168">
        <ele>211.4</ele>
        <time>2024-12-27T14:27:52Z</time>
      </trkpt>
      <trkpt lat="50.17677" lon="4.11695">
        <ele>211.2</ele>
        <time>2024-12-27T14:28:01Z</time>
      </trkpt>
      <trkpt lat="50.17678" lon="4.1171">
        <ele>211.1</ele>
        <time>2024-12-27T14:28:11Z</time>
      </trkpt>
      <trkpt lat="50.17677" lon="4.11724">
        <ele>210.9</ele>
        <time>2024-12-27T14:28:21Z</time>
      </trkpt>
      <trkpt lat="50.17677" lon="4.11739">
        <ele>210.6</ele>
        <time>2024-12-27T14:28:31Z</time>
      </trkpt>
      <trkpt lat="50.17676" lon="4.11753">
        <ele>210.3</ele>
        <time>2024-12-27T14:28:40Z</time>
      </trkpt>
      <trkpt lat="50.17675" lon="4.11768">
        <ele>210</ele>
        <time>2024-12-27T14:28:50Z</time>
      </trkpt>
      <trkpt lat="50.17673" lon="4.11783">
        <ele>209.7</ele>
        <time>2024-12-27T14:29:01Z</time>
      </trkpt>
      <trkpt lat="50.17671" lon="4.11797">
        <ele>209.3</ele>
        <time>2024-12-27T14:29:11Z</time>
      </trkpt>
      <trkpt lat="50.17668" lon="4.11811">
        <ele>208.9</ele>
        <time>2024-12-27T14:29:21Z</time>
      </trkpt>
      <trkpt lat="50.17666" lon="4.11826">
        <ele>208.5</ele>
        <time>2024-12-27T14:29:31Z</time>
      </trkpt>
      <trkpt lat="50.17663" lon="4.11841">
        <ele>208</ele>
        <time>2024-12-27T14:29:41Z</time>
      </trkpt>
      <trkpt lat="50.17659" lon="4.11855">
        <ele>207.6</ele>
        <time>2024-12-27T14:29:52Z</time>
      </trkpt>
      <trkpt lat="50.17656" lon="4.1187">
        <ele>207.2</ele>
        <time>2024-12-27T14:30:02Z</time>
      </trkpt>
      <trkpt lat="50.17652" lon="4.11883">
        <ele>206.7</ele>
        <time>2024-12-27T14:30:12Z</time>
      </trkpt>
      <trkpt lat="50.17647" lon="4.11897">
        <ele>206.3</ele>
        <time>2024-12-27T14:30:22Z</time>
      </trkpt>
      <trkpt lat="50.17643" lon="4.1191">
        <ele>205.8</ele>
        <time>2024-12-27T14:30:32Z</time>
      </trkpt>
      <trkpt lat="50.17638" lon="4.11922">
        <ele>205.4</ele>
        <time>2024-12-27T14:30:41Z</time>
      </trkpt>
      <trkpt lat="50.17633" lon="4.11935">
        <ele>204.9</ele>
        <time>2024-12-27T14:30:51Z</time>
      </trkpt>
      <trkpt lat="50.1763" lon="4.11948">
        <ele>204.5</ele>
        <time>2024-12-27T14:31:01Z</time>
      </trkpt>
      <trkpt lat="50.17628" lon="4.11963">
        <ele>204.1</ele>
        <time>2024-12-27T14:31:11Z</time>
      </trkpt>
      <trkpt lat="50.17626" lon="4.11977">
        <ele>203.8</ele>
        <time>2024-12-27T14:31:20Z</time>
      </trkpt>
      <trkpt lat="50.17625" lon="4.11992">
        <ele>203.5</ele>
        <time>2024-12-27T14:31:30Z</time>
      </trkpt>
      <trkpt lat="50.17624" lon="4.12007">
        <ele>203.3</ele>
        <time>2024-12-27T14:31:39Z</time>
      </trkpt>
      <trkpt lat="50.17624" lon="4.12023">
        <ele>203</ele>
        <time>2024-12-27T14:31:49Z</time>
      </trkpt>
      <trkpt lat="50.17625" lon="4.12038">
        <ele>202.8</ele>
        <time>2024-12-27T14:31:59Z</time>
      </trkpt>
      <trkpt lat="50.17628" lon="4.12052">
        <ele>202.6</ele>
        <time>2024-12-27T14:32:10Z</time>
      </trkpt>
      <trkpt lat="50.1763" lon="4.12067">
        <ele>202.4</ele>
        <time>2024-12-27T14:32:19Z</time>
      </trkpt>
      <trkpt lat="50.17633" lon="4.12081">
        <ele>202.2</ele>
        <time>2024-12-27T14:32:29Z</time>
      </trkpt>
      <trkpt lat="50.17636" lon="4.12095">
        <ele>202.1</ele>
        <time>2024-12-27T14:32:39Z</time>
      </trkpt>
      <trkpt lat="50.1764" lon="4.1211">
        <ele>202</ele>
        <time>2024-12-27T14:32:49Z</time>
      </trkpt>
      <trkpt lat="50.17643" lon="4.12124">
        <ele>201.8</ele>
        <time>2024-12-27T14:32:58Z</time>
      </trkpt>
      <trkpt lat="50.17647" lon="4.12137">
        <ele>201.7</ele>
        <time>2024-12-27T14:33:08Z</time>
      </trkpt>
      <trkpt lat="50.17652" lon="4.1215">
        <ele>201.7</ele>
        <time>2024-12-27T14:33:18Z</time>
      </trkpt>
      <trkpt lat="50.17656" lon="4.12163">
        <ele>201.6</ele>
        <time>2024-12-27T14:33:27Z</time>
      </trkpt>
      <trkpt lat="50.17661" lon="4.12176">
        <ele>201.6</ele>
        <time>2024-12-27T14:33:38Z</time>
      </trkpt>
      <trkpt lat="50.17664" lon="4.1219">
        <ele>201.6</ele>
        <time>2024-12-27T14:33:47Z</time>
      </trkpt>
      <trkpt lat="50.17666" lon="4.12204">
        <ele>201.6</ele>
        <time>2024-12-27T14:33:55Z</time>
      </trkpt>
      <trkpt lat="50.17668" lon="4.12218">
        <ele>201.6</ele>
        <time>2024-12-27T14:34:04Z</time>
      </trkpt>
      <trkpt lat="50.17669" lon="4.12233">
        <ele>201.6</ele>
        <time>2024-12-27T14:34:14Z</time>
      </trkpt>
      <trkpt lat="50.17671" lon="4.12247">
        <ele>201.7</ele>
        <time>2024-12-27T14:34:23Z</time>
      </trkpt>
      <trkpt lat="50.17672" lon="4.12261">
        <ele>201.7</ele>
        <time>2024-12-27T14:34:31Z</time>
      </trkpt>
      <trkpt lat="50.17674" lon="4.12276">
        <ele>201.6</ele>
        <time>2024-12-27T14:34:41Z</time>
      </trkpt>
      <trkpt lat="50.17677" lon="4.1229">
        <ele>201.6</ele>
        <time>2024-12-27T14:34:51Z</time>
      </trkpt>
      <trkpt lat="50.17678" lon="4.12305">
        <ele>201.5</ele>
        <time>2024-12-27T14:35:00Z</time>
      </trkpt>
      <trkpt lat="50.17681" lon="4.1232">
        <ele>201.5</ele>
        <time>2024-12-27T14:35:10Z</time>
      </trkpt>
      <trkpt lat="50.17682" lon="4.12334">
        <ele>201.5</ele>
        <time>2024-12-27T14:35:19Z</time>
      </trkpt>
      <trkpt lat="50.17682" lon="4.12349">
        <ele>201.6</ele>
        <time>2024-12-27T14:35:28Z</time>
      </trkpt>
      <trkpt lat="50.17683" lon="4.12364">
        <ele>201.7</ele>
        <time>2024-12-27T14:35:37Z</time>
      </trkpt>
      <trkpt lat="50.17683" lon="4.12379">
        <ele>201.8</ele>
        <time>2024-12-27T14:35:45Z</time>
      </trkpt>
      <trkpt lat="50.17685" lon="4.12393">
        <ele>202</ele>
        <time>2024-12-27T14:35:54Z</time>
      </trkpt>
      <trkpt lat="50.17685" lon="4.12408">
        <ele>202.2</ele>
        <time>2024-12-27T14:36:04Z</time>
      </trkpt>
      <trkpt lat="50.17685" lon="4.12423">
        <ele>202.4</ele>
        <time>2024-12-27T14:36:14Z</time>
      </trkpt>
      <trkpt lat="50.17685" lon="4.12439">
        <ele>202.6</ele>
        <time>2024-12-27T14:36:24Z</time>
      </trkpt>
      <trkpt lat="50.17684" lon="4.12453">
        <ele>202.7</ele>
        <time>2024-12-27T14:36:34Z</time>
      </trkpt>
      <trkpt lat="50.17682" lon="4.12467">
        <ele>202.7</ele>
        <time>2024-12-27T14:36:44Z</time>
      </trkpt>
      <trkpt lat="50.1768" lon="4.12482">
        <ele>202.7</ele>
        <time>2024-12-27T14:36:53Z</time>
      </trkpt>
      <trkpt lat="50.17677" lon="4.12497">
        <ele>202.7</ele>
        <time>2024-12-27T14:37:02Z</time>
      </trkpt>
      <trkpt lat="50.17675" lon="4.12511">
        <ele>202.7</ele>
        <time>2024-12-27T14:37:12Z</time>
      </trkpt>
      <trkpt lat="50.17673" lon="4.12525">
        <ele>202.7</ele>
        <time>2024-12-27T14:37:21Z</time>
      </trkpt>
      <trkpt lat="50.1767" lon="4.12539">
        <ele>202.7</ele>
        <time>2024-12-27T14:37:31Z</time>
      </trkpt>
      <trkpt lat="50.17668" lon="4.12553">
        <ele>202.7</ele>
        <time>2024-12-27T14:37:44Z</time>
      </trkpt>
      <trkpt lat="50.17665" lon="4.12566">
        <ele>202.7</ele>
        <time>2024-12-27T14:37:55Z</time>
      </trkpt>
      <trkpt lat="50.17661" lon="4.1258">
        <ele>202.7</ele>
        <time>2024-12-27T14:38:04Z</time>
      </trkpt>
      <trkpt lat="50.17657" lon="4.12594">
        <ele>202.8</ele>
        <time>2024-12-27T14:38:15Z</time>
      </trkpt>
      <trkpt lat="50.1765" lon="4.12605">
        <ele>202.9</ele>
        <time>2024-12-27T14:38:26Z</time>
      </trkpt>
      <trkpt lat="50.17645" lon="4.12616">
        <ele>203.1</ele>
        <time>2024-12-27T14:38:35Z</time>
      </trkpt>
      <trkpt lat="50.1764" lon="4.1263">
        <ele>203.3</ele>
        <time>2024-12-27T14:38:44Z</time>
      </trkpt>
      <trkpt lat="50.17636" lon="4.12644">
        <ele>203.5</ele>
        <time>2024-12-27T14:38:56Z</time>
      </trkpt>
      <trkpt lat="50.17635" lon="4.12658">
        <ele>203.7</ele>
        <time>2024-12-27T14:39:05Z</time>
      </trkpt>
      <trkpt lat="50.1763" lon="4.12671">
        <ele>203.9</ele>
        <time>2024-12-27T14:39:16Z</time>
      </trkpt>
      <trkpt lat="50.17625" lon="4.12684">
        <ele>204</ele>
        <time>2024-12-27T14:39:23Z</time>
      </trkpt>
      <trkpt lat="50.17622" lon="4.12697">
        <ele>204.2</ele>
        <time>2024-12-27T14:39:31Z</time>
      </trkpt>
      <trkpt lat="50.17618" lon="4.12711">
        <ele>204.4</ele>
        <time>2024-12-27T14:39:39Z</time>
      </trkpt>
      <trkpt lat="50.17611" lon="4.12721">
        <ele>204.7</ele>
        <time>2024-12-27T14:39:49Z</time>
      </trkpt>
      <trkpt lat="50.17603" lon="4.12728">
        <ele>205.1</ele>
        <time>2024-12-27T14:40:01Z</time>
      </trkpt>
      <trkpt lat="50.17593" lon="4.12728">
        <ele>205.2</ele>
        <time>2024-12-27T14:40:11Z</time>
      </trkpt>
      <trkpt lat="50.17584" lon="4.12728">
        <ele>205.2</ele>
        <time>2024-12-27T14:40:20Z</time>
      </trkpt>
      <trkpt lat="50.17575" lon="4.12724">
        <ele>205.4</ele>
        <time>2024-12-27T14:40:29Z</time>
      </trkpt>
      <trkpt lat="50.17566" lon="4.1272">
        <ele>205.5</ele>
        <time>2024-12-27T14:40:39Z</time>
      </trkpt>
      <trkpt lat="50.17556" lon="4.12718">
        <ele>205.7</ele>
        <time>2024-12-27T14:40:49Z</time>
      </trkpt>
      <trkpt lat="50.17554" lon="4.12719">
        <ele>205.7</ele>
        <time>2024-12-27T14:40:56Z</time>
      </trkpt>
      <trkpt lat="50.17553" lon="4.12718">
        <ele>205.8</ele>
        <time>2024-12-27T14:40:57Z</time>
      </trkpt>
      <trkpt lat="50.17553" lon="4.12717">
        <ele>205.8</ele>
        <time>2024-12-27T14:40:58Z</time>
      </trkpt>
      <trkpt lat="50.17552" lon="4.12716">
        <ele>205.8</ele>
        <time>2024-12-27T14:40:59Z</time>
      </trkpt>
      <trkpt lat="50.17551" lon="4.12715">
        <ele>205.8</ele>
        <time>2024-12-27T14:41:00Z</time>
      </trkpt>
      <trkpt lat="50.17543" lon="4.1271">
        <ele>206</ele>
        <time>2024-12-27T14:41:09Z</time>
      </trkpt>
      <trkpt lat="50.17533" lon="4.12706">
        <ele>206.3</ele>
        <time>2024-12-27T14:41:19Z</time>
      </trkpt>
      <trkpt lat="50.17524" lon="4.12703">
        <ele>206.5</ele>
        <time>2024-12-27T14:41:28Z</time>
      </trkpt>
      <trkpt lat="50.17515" lon="4.12699">
        <ele>206.8</ele>
        <time>2024-12-27T14:41:37Z</time>
      </trkpt>
      <trkpt lat="50.17506" lon="4.12694">
        <ele>207.1</ele>
        <time>2024-12-27T14:41:46Z</time>
      </trkpt>
      <trkpt lat="50.17497" lon="4.12691">
        <ele>207.3</ele>
        <time>2024-12-27T14:41:55Z</time>
      </trkpt>
      <trkpt lat="50.17488" lon="4.12688">
        <ele>207.6</ele>
        <time>2024-12-27T14:42:04Z</time>
      </trkpt>
      <trkpt lat="50.17478" lon="4.12684">
        <ele>208</ele>
        <time>2024-12-27T14:42:13Z</time>
      </trkpt>
      <trkpt lat="50.1747" lon="4.12681">
        <ele>208.3</ele>
        <time>2024-12-27T14:42:22Z</time>
      </trkpt>
      <trkpt lat="50.1746" lon="4.12677">
        <ele>208.7</ele>
        <time>2024-12-27T14:42:32Z</time>
      </trkpt>
      <trkpt lat="50.1745" lon="4.12674">
        <ele>208.9</ele>
        <time>2024-12-27T14:42:45Z</time>
      </trkpt>
      <trkpt lat="50.17441" lon="4.1267">
        <ele>209.2</ele>
        <time>2024-12-27T14:42:55Z</time>
      </trkpt>
      <trkpt lat="50.17432" lon="4.12666">
        <ele>209.4</ele>
        <time>2024-12-27T14:43:04Z</time>
      </trkpt>
      <trkpt lat="50.17422" lon="4.12662">
        <ele>209.7</ele>
        <time>2024-12-27T14:43:13Z</time>
      </trkpt>
      <trkpt lat="50.17413" lon="4.1266">
        <ele>210</ele>
        <time>2024-12-27T14:43:23Z</time>
      </trkpt>
      <trkpt lat="50.17411" lon="4.1266">
        <ele>210.1</ele>
        <time>2024-12-27T14:43:29Z</time>
      </trkpt>
      <trkpt lat="50.17411" lon="4.1266">
        <ele>210.1</ele>
        <time>2024-12-27T14:43:30Z</time>
      </trkpt>
      <trkpt lat="50.17411" lon="4.1266">
        <ele>210.1</ele>
        <time>2024-12-27T14:43:31Z</time>
      </trkpt>
      <trkpt lat="50.17409" lon="4.12659">
        <ele>210.2</ele>
        <time>2024-12-27T14:43:34Z</time>
      </trkpt>
      <trkpt lat="50.17408" lon="4.12658">
        <ele>210.2</ele>
        <time>2024-12-27T14:43:35Z</time>
      </trkpt>
      <trkpt lat="50.17399" lon="4.12654">
        <ele>210.5</ele>
        <time>2024-12-27T14:43:44Z</time>
      </trkpt>
      <trkpt lat="50.1739" lon="4.12651">
        <ele>210.9</ele>
        <time>2024-12-27T14:43:54Z</time>
      </trkpt>
      <trkpt lat="50.17381" lon="4.12648">
        <ele>211.2</ele>
        <time>2024-12-27T14:44:03Z</time>
      </trkpt>
      <trkpt lat="50.17371" lon="4.12644">
        <ele>211.5</ele>
        <time>2024-12-27T14:44:13Z</time>
      </trkpt>
      <trkpt lat="50.17362" lon="4.1264">
        <ele>211.9</ele>
        <time>2024-12-27T14:44:23Z</time>
      </trkpt>
      <trkpt lat="50.17352" lon="4.12636">
        <ele>212.2</ele>
        <time>2024-12-27T14:44:33Z</time>
      </trkpt>
      <trkpt lat="50.17343" lon="4.12633">
        <ele>212.6</ele>
        <time>2024-12-27T14:44:43Z</time>
      </trkpt>
      <trkpt lat="50.17334" lon="4.12629">
        <ele>213</ele>
        <time>2024-12-27T14:44:54Z</time>
      </trkpt>
      <trkpt lat="50.17324" lon="4.12625">
        <ele>213.4</ele>
        <time>2024-12-27T14:45:04Z</time>
      </trkpt>
      <trkpt lat="50.17315" lon="4.12622">
        <ele>213.9</ele>
        <time>2024-12-27T14:45:14Z</time>
      </trkpt>
      <trkpt lat="50.17305" lon="4.12618">
        <ele>214.3</ele>
        <time>2024-12-27T14:45:24Z</time>
      </trkpt>
      <trkpt lat="50.17295" lon="4.12615">
        <ele>214.8</ele>
        <time>2024-12-27T14:45:34Z</time>
      </trkpt>
      <trkpt lat="50.17286" lon="4.12613">
        <ele>215.3</ele>
        <time>2024-12-27T14:45:43Z</time>
      </trkpt>
      <trkpt lat="50.17276" lon="4.12611">
        <ele>215.9</ele>
        <time>2024-12-27T14:45:53Z</time>
      </trkpt>
      <trkpt lat="50.17266" lon="4.12608">
        <ele>216.4</ele>
        <time>2024-12-27T14:46:04Z</time>
      </trkpt>
      <trkpt lat="50.17257" lon="4.12605">
        <ele>216.9</ele>
        <time>2024-12-27T14:46:14Z</time>
      </trkpt>
      <trkpt lat="50.17248" lon="4.12602">
        <ele>217.4</ele>
        <time>2024-12-27T14:46:24Z</time>
      </trkpt>
      <trkpt lat="50.17239" lon="4.12599">
        <ele>218</ele>
        <time>2024-12-27T14:46:35Z</time>
      </trkpt>
      <trkpt lat="50.1723" lon="4.12597">
        <ele>218.6</ele>
        <time>2024-12-27T14:46:48Z</time>
      </trkpt>
      <trkpt lat="50.17221" lon="4.12593">
        <ele>219.2</ele>
        <time>2024-12-27T14:46:59Z</time>
      </trkpt>
      <trkpt lat="50.17212" lon="4.1259">
        <ele>219.7</ele>
        <time>2024-12-27T14:47:13Z</time>
      </trkpt>
      <trkpt lat="50.17202" lon="4.12587">
        <ele>220.2</ele>
        <time>2024-12-27T14:47:24Z</time>
      </trkpt>
      <trkpt lat="50.17193" lon="4.12584">
        <ele>220.6</ele>
        <time>2024-12-27T14:47:34Z</time>
      </trkpt>
      <trkpt lat="50.17184" lon="4.1258">
        <ele>221</ele>
        <time>2024-12-27T14:47:44Z</time>
      </trkpt>
      <trkpt lat="50.17174" lon="4.12577">
        <ele>221.4</ele>
        <time>2024-12-27T14:47:55Z</time>
      </trkpt>
      <trkpt lat="50.17164" lon="4.12574">
        <ele>221.7</ele>
        <time>2024-12-27T14:48:06Z</time>
      </trkpt>
      <trkpt lat="50.17155" lon="4.12572">
        <ele>221.9</ele>
        <time>2024-12-27T14:48:16Z</time>
      </trkpt>
      <trkpt lat="50.17146" lon="4.12571">
        <ele>222.2</ele>
        <time>2024-12-27T14:48:26Z</time>
      </trkpt>
      <trkpt lat="50.17137" lon="4.1257">
        <ele>222.4</ele>
        <time>2024-12-27T14:48:36Z</time>
      </trkpt>
      <trkpt lat="50.17127" lon="4.1257">
        <ele>222.7</ele>
        <time>2024-12-27T14:48:46Z</time>
      </trkpt>
      <trkpt lat="50.17118" lon="4.12571">
        <ele>222.9</ele>
        <time>2024-12-27T14:48:55Z</time>
      </trkpt>
      <trkpt lat="50.17109" lon="4.12571">
        <ele>223.1</ele>
        <time>2024-12-27T14:49:05Z</time>
      </trkpt>
      <trkpt lat="50.17099" lon="4.12574">
        <ele>223.4</ele>
        <time>2024-12-27T14:49:16Z</time>
      </trkpt>
      <trkpt lat="50.1709" lon="4.12576">
        <ele>223.6</ele>
        <time>2024-12-27T14:49:28Z</time>
      </trkpt>
      <trkpt lat="50.17081" lon="4.1258">
        <ele>223.8</ele>
        <time>2024-12-27T14:49:38Z</time>
      </trkpt>
      <trkpt lat="50.17072" lon="4.12585">
        <ele>224</ele>
        <time>2024-12-27T14:49:51Z</time>
      </trkpt>
      <trkpt lat="50.17063" lon="4.1259">
        <ele>224.3</ele>
        <time>2024-12-27T14:50:00Z</time>
      </trkpt>
      <trkpt lat="50.17054" lon="4.12595">
        <ele>224.6</ele>
        <time>2024-12-27T14:50:08Z</time>
      </trkpt>
      <trkpt lat="50.17046" lon="4.12601">
        <ele>224.9</ele>
        <time>2024-12-27T14:50:17Z</time>
      </trkpt>
      <trkpt lat="50.17037" lon="4.12606">
        <ele>225.2</ele>
        <time>2024-12-27T14:50:27Z</time>
      </trkpt>
      <trkpt lat="50.17029" lon="4.12613">
        <ele>225.6</ele>
        <time>2024-12-27T14:50:38Z</time>
      </trkpt>
      <trkpt lat="50.1702" lon="4.12619">
        <ele>225.9</ele>
        <time>2024-12-27T14:50:48Z</time>
      </trkpt>
      <trkpt lat="50.17011" lon="4.12626">
        <ele>226.3</ele>
        <time>2024-12-27T14:50:59Z</time>
      </trkpt>
      <trkpt lat="50.17003" lon="4.12633">
        <ele>226.6</ele>
        <time>2024-12-27T14:51:09Z</time>
      </trkpt>
      <trkpt lat="50.16994" lon="4.1264">
        <ele>227</ele>
        <time>2024-12-27T14:51:20Z</time>
      </trkpt>
      <trkpt lat="50.16986" lon="4.12646">
        <ele>227.2</ele>
        <time>2024-12-27T14:51:30Z</time>
      </trkpt>
      <trkpt lat="50.16977" lon="4.12652">
        <ele>227.5</ele>
        <time>2024-12-27T14:51:40Z</time>
      </trkpt>
      <trkpt lat="50.16969" lon="4.12659">
        <ele>227.8</ele>
        <time>2024-12-27T14:51:51Z</time>
      </trkpt>
      <trkpt lat="50.1696" lon="4.12666">
        <ele>228</ele>
        <time>2024-12-27T14:52:00Z</time>
      </trkpt>
      <trkpt lat="50.16952" lon="4.12672">
        <ele>228.2</ele>
        <time>2024-12-27T14:52:11Z</time>
      </trkpt>
      <trkpt lat="50.16944" lon="4.12679">
        <ele>228.4</ele>
        <time>2024-12-27T14:52:22Z</time>
      </trkpt>
      <trkpt lat="50.16936" lon="4.12686">
        <ele>228.5</ele>
        <time>2024-12-27T14:52:32Z</time>
      </trkpt>
      <trkpt lat="50.16928" lon="4.12693">
        <ele>228.6</ele>
        <time>2024-12-27T14:52:41Z</time>
      </trkpt>
      <trkpt lat="50.16919" lon="4.127">
        <ele>228.7</ele>
        <time>2024-12-27T14:52:50Z</time>
      </trkpt>
      <trkpt lat="50.1691" lon="4.12707">
        <ele>228.7</ele>
        <time>2024-12-27T14:52:59Z</time>
      </trkpt>
      <trkpt lat="50.16902" lon="4.12713">
        <ele>228.7</ele>
        <time>2024-12-27T14:53:09Z</time>
      </trkpt>
      <trkpt lat="50.16894" lon="4.1272">
        <ele>228.6</ele>
        <time>2024-12-27T14:53:19Z</time>
      </trkpt>
      <trkpt lat="50.16885" lon="4.12726">
        <ele>228.5</ele>
        <time>2024-12-27T14:53:29Z</time>
      </trkpt>
      <trkpt lat="50.16877" lon="4.12733">
        <ele>228.5</ele>
        <time>2024-12-27T14:53:38Z</time>
      </trkpt>
      <trkpt lat="50.16868" lon="4.1274">
        <ele>228.4</ele>
        <time>2024-12-27T14:53:48Z</time>
      </trkpt>
      <trkpt lat="50.1686" lon="4.12746">
        <ele>228.4</ele>
        <time>2024-12-27T14:53:59Z</time>
      </trkpt>
      <trkpt lat="50.16852" lon="4.12752">
        <ele>228.4</ele>
        <time>2024-12-27T14:54:09Z</time>
      </trkpt>
      <trkpt lat="50.16843" lon="4.12761">
        <ele>228.4</ele>
        <time>2024-12-27T14:54:19Z</time>
      </trkpt>
      <trkpt lat="50.16835" lon="4.1277">
        <ele>228.5</ele>
        <time>2024-12-27T14:54:29Z</time>
      </trkpt>
      <trkpt lat="50.16829" lon="4.12779">
        <ele>228.5</ele>
        <time>2024-12-27T14:54:38Z</time>
      </trkpt>
      <trkpt lat="50.16823" lon="4.12791">
        <ele>228.6</ele>
        <time>2024-12-27T14:54:47Z</time>
      </trkpt>
      <trkpt lat="50.16817" lon="4.12803">
        <ele>228.8</ele>
        <time>2024-12-27T14:55:00Z</time>
      </trkpt>
      <trkpt lat="50.16813" lon="4.12817">
        <ele>228.9</ele>
        <time>2024-12-27T14:55:10Z</time>
      </trkpt>
      <trkpt lat="50.1681" lon="4.12831">
        <ele>229.1</ele>
        <time>2024-12-27T14:55:19Z</time>
      </trkpt>
      <trkpt lat="50.16807" lon="4.12845">
        <ele>229.3</ele>
        <time>2024-12-27T14:55:28Z</time>
      </trkpt>
      <trkpt lat="50.16805" lon="4.1286">
        <ele>229.6</ele>
        <time>2024-12-27T14:55:38Z</time>
      </trkpt>
      <trkpt lat="50.16801" lon="4.12874">
        <ele>229.9</ele>
        <time>2024-12-27T14:55:49Z</time>
      </trkpt>
      <trkpt lat="50.16797" lon="4.12887">
        <ele>230.2</ele>
        <time>2024-12-27T14:55:59Z</time>
      </trkpt>
      <trkpt lat="50.16792" lon="4.129">
        <ele>230.6</ele>
        <time>2024-12-27T14:56:09Z</time>
      </trkpt>
      <trkpt lat="50.16789" lon="4.12915">
        <ele>231</ele>
        <time>2024-12-27T14:56:26Z</time>
      </trkpt>
      <trkpt lat="50.16782" lon="4.12926">
        <ele>231.5</ele>
        <time>2024-12-27T14:56:35Z</time>
      </trkpt>
      <trkpt lat="50.16775" lon="4.12936">
        <ele>232</ele>
        <time>2024-12-27T14:56:45Z</time>
      </trkpt>
      <trkpt lat="50.16767" lon="4.12944">
        <ele>232.5</ele>
        <time>2024-12-27T14:56:56Z</time>
      </trkpt>
      <trkpt lat="50.16759" lon="4.1295">
        <ele>232.9</ele>
        <time>2024-12-27T14:57:05Z</time>
      </trkpt>
      <trkpt lat="50.1675" lon="4.12955">
        <ele>233.4</ele>
        <time>2024-12-27T14:57:14Z</time>
      </trkpt>
      <trkpt lat="50.16741" lon="4.12957">
        <ele>233.8</ele>
        <time>2024-12-27T14:57:25Z</time>
      </trkpt>
      <trkpt lat="50.16732" lon="4.12959">
        <ele>234.3</ele>
        <time>2024-12-27T14:57:36Z</time>
      </trkpt>
      <trkpt lat="50.16723" lon="4.12963">
        <ele>234.7</ele>
        <time>2024-12-27T14:57:46Z</time>
      </trkpt>
      <trkpt lat="50.16714" lon="4.12967">
        <ele>235.1</ele>
        <time>2024-12-27T14:57:58Z</time>
      </trkpt>
      <trkpt lat="50.16704" lon="4.12973">
        <ele>235.6</ele>
        <time>2024-12-27T14:58:06Z</time>
      </trkpt>
      <trkpt lat="50.16696" lon="4.12977">
        <ele>235.9</ele>
        <time>2024-12-27T14:58:15Z</time>
      </trkpt>
      <trkpt lat="50.16687" lon="4.12983">
        <ele>236.3</ele>
        <time>2024-12-27T14:58:28Z</time>
      </trkpt>
      <trkpt lat="50.16678" lon="4.12987">
        <ele>236.6</ele>
        <time>2024-12-27T14:58:38Z</time>
      </trkpt>
      <trkpt lat="50.1667" lon="4.12991">
        <ele>236.7</ele>
        <time>2024-12-27T14:58:49Z</time>
      </trkpt>
      <trkpt lat="50.16661" lon="4.12997">
        <ele>236.9</ele>
        <time>2024-12-27T14:58:59Z</time>
      </trkpt>
      <trkpt lat="50.16654" lon="4.13006">
        <ele>236.9</ele>
        <time>2024-12-27T14:59:17Z</time>
      </trkpt>
      <trkpt lat="50.16645" lon="4.13013">
        <ele>236.5</ele>
        <time>2024-12-27T14:59:26Z</time>
      </trkpt>
      <trkpt lat="50.16636" lon="4.13019">
        <ele>236.1</ele>
        <time>2024-12-27T14:59:36Z</time>
      </trkpt>
      <trkpt lat="50.16628" lon="4.13026">
        <ele>235.8</ele>
        <time>2024-12-27T14:59:46Z</time>
      </trkpt>
      <trkpt lat="50.1662" lon="4.13033">
        <ele>235.4</ele>
        <time>2024-12-27T14:59:55Z</time>
      </trkpt>
      <trkpt lat="50.16611" lon="4.13039">
        <ele>235</ele>
        <time>2024-12-27T15:00:03Z</time>
      </trkpt>
      <trkpt lat="50.16602" lon="4.13044">
        <ele>234.7</ele>
        <time>2024-12-27T15:00:11Z</time>
      </trkpt>
      <trkpt lat="50.16593" lon="4.13046">
        <ele>234.4</ele>
        <time>2024-12-27T15:00:20Z</time>
      </trkpt>
      <trkpt lat="50.16583" lon="4.13046">
        <ele>234.1</ele>
        <time>2024-12-27T15:00:33Z</time>
      </trkpt>
      <trkpt lat="50.16575" lon="4.13054">
        <ele>233.9</ele>
        <time>2024-12-27T15:00:46Z</time>
      </trkpt>
      <trkpt lat="50.16565" lon="4.13057">
        <ele>233.5</ele>
        <time>2024-12-27T15:01:04Z</time>
      </trkpt>
      <trkpt lat="50.16556" lon="4.13058">
        <ele>233.3</ele>
        <time>2024-12-27T15:01:13Z</time>
      </trkpt>
      <trkpt lat="50.16549" lon="4.13067">
        <ele>233</ele>
        <time>2024-12-27T15:01:18Z</time>
      </trkpt>
      <trkpt lat="50.16539" lon="4.13073">
        <ele>232.7</ele>
        <time>2024-12-27T15:01:25Z</time>
      </trkpt>
      <trkpt lat="50.16531" lon="4.13078">
        <ele>232.5</ele>
        <time>2024-12-27T15:01:34Z</time>
      </trkpt>
      <trkpt lat="50.16521" lon="4.13082">
        <ele>232.3</ele>
        <time>2024-12-27T15:01:42Z</time>
      </trkpt>
      <trkpt lat="50.16512" lon="4.13085">
        <ele>232.1</ele>
        <time>2024-12-27T15:01:53Z</time>
      </trkpt>
      <trkpt lat="50.16503" lon="4.13087">
        <ele>232</ele>
        <time>2024-12-27T15:02:03Z</time>
      </trkpt>
      <trkpt lat="50.16494" lon="4.13088">
        <ele>231.8</ele>
        <time>2024-12-27T15:02:13Z</time>
      </trkpt>
      <trkpt lat="50.16484" lon="4.13092">
        <ele>231.7</ele>
        <time>2024-12-27T15:02:23Z</time>
      </trkpt>
      <trkpt lat="50.16475" lon="4.13095">
        <ele>231.7</ele>
        <time>2024-12-27T15:02:33Z</time>
      </trkpt>
      <trkpt lat="50.16466" lon="4.13099">
        <ele>231.7</ele>
        <time>2024-12-27T15:02:42Z</time>
      </trkpt>
      <trkpt lat="50.16457" lon="4.13104">
        <ele>231.8</ele>
        <time>2024-12-27T15:02:51Z</time>
      </trkpt>
      <trkpt lat="50.16448" lon="4.13108">
        <ele>231.9</ele>
        <time>2024-12-27T15:03:01Z</time>
      </trkpt>
      <trkpt lat="50.16439" lon="4.13114">
        <ele>232.1</ele>
        <time>2024-12-27T15:03:12Z</time>
      </trkpt>
      <trkpt lat="50.16431" lon="4.13118">
        <ele>232.3</ele>
        <time>2024-12-27T15:03:25Z</time>
      </trkpt>
      <trkpt lat="50.16422" lon="4.13124">
        <ele>232.5</ele>
        <time>2024-12-27T15:03:33Z</time>
      </trkpt>
      <trkpt lat="50.16413" lon="4.1313">
        <ele>232.7</ele>
        <time>2024-12-27T15:03:42Z</time>
      </trkpt>
      <trkpt lat="50.16404" lon="4.13136">
        <ele>232.8</ele>
        <time>2024-12-27T15:03:50Z</time>
      </trkpt>
      <trkpt lat="50.16395" lon="4.13143">
        <ele>233</ele>
        <time>2024-12-27T15:03:59Z</time>
      </trkpt>
      <trkpt lat="50.16386" lon="4.13149">
        <ele>233.1</ele>
        <time>2024-12-27T15:04:07Z</time>
      </trkpt>
      <trkpt lat="50.16378" lon="4.13155">
        <ele>233.3</ele>
        <time>2024-12-27T15:04:16Z</time>
      </trkpt>
      <trkpt lat="50.16369" lon="4.13161">
        <ele>233.4</ele>
        <time>2024-12-27T15:04:26Z</time>
      </trkpt>
      <trkpt lat="50.16361" lon="4.13166">
        <ele>233.6</ele>
        <time>2024-12-27T15:04:36Z</time>
      </trkpt>
      <trkpt lat="50.16352" lon="4.13172">
        <ele>233.9</ele>
        <time>2024-12-27T15:04:46Z</time>
      </trkpt>
      <trkpt lat="50.16344" lon="4.13178">
        <ele>234.2</ele>
        <time>2024-12-27T15:04:55Z</time>
      </trkpt>
      <trkpt lat="50.16335" lon="4.13184">
        <ele>234.5</ele>
        <time>2024-12-27T15:05:05Z</time>
      </trkpt>
      <trkpt lat="50.16327" lon="4.1319">
        <ele>234.9</ele>
        <time>2024-12-27T15:05:15Z</time>
      </trkpt>
      <trkpt lat="50.16317" lon="4.13195">
        <ele>235.3</ele>
        <time>2024-12-27T15:05:25Z</time>
      </trkpt>
      <trkpt lat="50.16308" lon="4.13198">
        <ele>235.6</ele>
        <time>2024-12-27T15:05:35Z</time>
      </trkpt>
      <trkpt lat="50.16299" lon="4.132">
        <ele>236</ele>
        <time>2024-12-27T15:05:45Z</time>
      </trkpt>
      <trkpt lat="50.16289" lon="4.132">
        <ele>236.4</ele>
        <time>2024-12-27T15:05:56Z</time>
      </trkpt>
      <trkpt lat="50.16279" lon="4.13201">
        <ele>236.8</ele>
        <time>2024-12-27T15:06:07Z</time>
      </trkpt>
      <trkpt lat="50.1627" lon="4.13199">
        <ele>237.2</ele>
        <time>2024-12-27T15:06:16Z</time>
      </trkpt>
      <trkpt lat="50.1626" lon="4.13198">
        <ele>237.7</ele>
        <time>2024-12-27T15:06:25Z</time>
      </trkpt>
      <trkpt lat="50.1625" lon="4.13197">
        <ele>238.2</ele>
        <time>2024-12-27T15:06:35Z</time>
      </trkpt>
      <trkpt lat="50.16241" lon="4.13198">
        <ele>238.6</ele>
        <time>2024-12-27T15:06:45Z</time>
      </trkpt>
      <trkpt lat="50.16231" lon="4.13197">
        <ele>239</ele>
        <time>2024-12-27T15:06:55Z</time>
      </trkpt>
      <trkpt lat="50.16222" lon="4.13196">
        <ele>239.2</ele>
        <time>2024-12-27T15:07:04Z</time>
      </trkpt>
      <trkpt lat="50.16212" lon="4.13195">
        <ele>239.5</ele>
        <time>2024-12-27T15:07:14Z</time>
      </trkpt>
      <trkpt lat="50.16203" lon="4.13196">
        <ele>239.8</ele>
        <time>2024-12-27T15:07:25Z</time>
      </trkpt>
      <trkpt lat="50.16193" lon="4.13194">
        <ele>240.2</ele>
        <time>2024-12-27T15:07:35Z</time>
      </trkpt>
      <trkpt lat="50.16184" lon="4.13192">
        <ele>240.5</ele>
        <time>2024-12-27T15:07:43Z</time>
      </trkpt>
      <trkpt lat="50.16175" lon="4.13192">
        <ele>240.7</ele>
        <time>2024-12-27T15:07:52Z</time>
      </trkpt>
      <trkpt lat="50.16165" lon="4.13194">
        <ele>241</ele>
        <time>2024-12-27T15:08:02Z</time>
      </trkpt>
      <trkpt lat="50.16156" lon="4.13194">
        <ele>241.2</ele>
        <time>2024-12-27T15:08:11Z</time>
      </trkpt>
      <trkpt lat="50.16146" lon="4.13192">
        <ele>241.4</ele>
        <time>2024-12-27T15:08:21Z</time>
      </trkpt>
      <trkpt lat="50.16137" lon="4.1319">
        <ele>241.5</ele>
        <time>2024-12-27T15:08:32Z</time>
      </trkpt>
      <trkpt lat="50.16128" lon="4.1319">
        <ele>241.6</ele>
        <time>2024-12-27T15:08:41Z</time>
      </trkpt>
      <trkpt lat="50.16118" lon="4.1319">
        <ele>241.6</ele>
        <time>2024-12-27T15:08:50Z</time>
      </trkpt>
      <trkpt lat="50.16108" lon="4.13191">
        <ele>241.7</ele>
        <time>2024-12-27T15:09:00Z</time>
      </trkpt>
      <trkpt lat="50.16099" lon="4.13191">
        <ele>241.6</ele>
        <time>2024-12-27T15:09:10Z</time>
      </trkpt>
      <trkpt lat="50.1609" lon="4.13191">
        <ele>241.6</ele>
        <time>2024-12-27T15:09:19Z</time>
      </trkpt>
      <trkpt lat="50.1608" lon="4.13189">
        <ele>241.6</ele>
        <time>2024-12-27T15:09:29Z</time>
      </trkpt>
      <trkpt lat="50.16071" lon="4.13189">
        <ele>241.6</ele>
        <time>2024-12-27T15:09:38Z</time>
      </trkpt>
      <trkpt lat="50.16064" lon="4.13179">
        <ele>241.6</ele>
        <time>2024-12-27T15:09:52Z</time>
      </trkpt>
      <trkpt lat="50.16058" lon="4.13167">
        <ele>241.6</ele>
        <time>2024-12-27T15:10:07Z</time>
      </trkpt>
      <trkpt lat="50.16053" lon="4.13155">
        <ele>241.6</ele>
        <time>2024-12-27T15:10:14Z</time>
      </trkpt>
      <trkpt lat="50.16048" lon="4.13143">
        <ele>241.6</ele>
        <time>2024-12-27T15:10:21Z</time>
      </trkpt>
      <trkpt lat="50.16043" lon="4.13132">
        <ele>241.6</ele>
        <time>2024-12-27T15:10:30Z</time>
      </trkpt>
      <trkpt lat="50.16037" lon="4.1312">
        <ele>241.6</ele>
        <time>2024-12-27T15:10:39Z</time>
      </trkpt>
      <trkpt lat="50.16032" lon="4.13108">
        <ele>241.6</ele>
        <time>2024-12-27T15:10:48Z</time>
      </trkpt>
      <trkpt lat="50.16027" lon="4.13095">
        <ele>241.6</ele>
        <time>2024-12-27T15:10:57Z</time>
      </trkpt>
      <trkpt lat="50.16022" lon="4.13084">
        <ele>241.6</ele>
        <time>2024-12-27T15:11:06Z</time>
      </trkpt>
      <trkpt lat="50.16017" lon="4.13071">
        <ele>241.6</ele>
        <time>2024-12-27T15:11:16Z</time>
      </trkpt>
      <trkpt lat="50.16012" lon="4.13059">
        <ele>241.6</ele>
        <time>2024-12-27T15:11:25Z</time>
      </trkpt>
      <trkpt lat="50.16006" lon="4.13047">
        <ele>241.6</ele>
        <time>2024-12-27T15:11:35Z</time>
      </trkpt>
      <trkpt lat="50.16" lon="4.13034">
        <ele>241.5</ele>
        <time>2024-12-27T15:11:45Z</time>
      </trkpt>
      <trkpt lat="50.15994" lon="4.13023">
        <ele>241.4</ele>
        <time>2024-12-27T15:11:55Z</time>
      </trkpt>
      <trkpt lat="50.15989" lon="4.1301">
        <ele>241.3</ele>
        <time>2024-12-27T15:12:07Z</time>
      </trkpt>
      <trkpt lat="50.15984" lon="4.12999">
        <ele>241.1</ele>
        <time>2024-12-27T15:12:15Z</time>
      </trkpt>
      <trkpt lat="50.15979" lon="4.12987">
        <ele>241</ele>
        <time>2024-12-27T15:12:23Z</time>
      </trkpt>
      <trkpt lat="50.15974" lon="4.12975">
        <ele>240.9</ele>
        <time>2024-12-27T15:12:32Z</time>
      </trkpt>
      <trkpt lat="50.15969" lon="4.12962">
        <ele>240.8</ele>
        <time>2024-12-27T15:12:41Z</time>
      </trkpt>
      <trkpt lat="50.15963" lon="4.12949">
        <ele>240.6</ele>
        <time>2024-12-27T15:12:51Z</time>
      </trkpt>
      <trkpt lat="50.15958" lon="4.12936">
        <ele>240.5</ele>
        <time>2024-12-27T15:13:00Z</time>
      </trkpt>
      <trkpt lat="50.15953" lon="4.12923">
        <ele>240.4</ele>
        <time>2024-12-27T15:13:12Z</time>
      </trkpt>
      <trkpt lat="50.15948" lon="4.12909">
        <ele>240.4</ele>
        <time>2024-12-27T15:13:20Z</time>
      </trkpt>
      <trkpt lat="50.15943" lon="4.12898">
        <ele>240.3</ele>
        <time>2024-12-27T15:13:28Z</time>
      </trkpt>
      <trkpt lat="50.15938" lon="4.12885">
        <ele>240.2</ele>
        <time>2024-12-27T15:13:37Z</time>
      </trkpt>
      <trkpt lat="50.15934" lon="4.12872">
        <ele>240.1</ele>
        <time>2024-12-27T15:13:46Z</time>
      </trkpt>
      <trkpt lat="50.15932" lon="4.1287">
        <ele>240.1</ele>
        <time>2024-12-27T15:13:54Z</time>
      </trkpt>
      <trkpt lat="50.15932" lon="4.1287">
        <ele>240.1</ele>
        <time>2024-12-27T15:13:55Z</time>
      </trkpt>
      <trkpt lat="50.15932" lon="4.12867">
        <ele>240.1</ele>
        <time>2024-12-27T15:13:59Z</time>
      </trkpt>
      <trkpt lat="50.15932" lon="4.12865">
        <ele>240.1</ele>
        <time>2024-12-27T15:14:00Z</time>
      </trkpt>
      <trkpt lat="50.15928" lon="4.12852">
        <ele>240</ele>
        <time>2024-12-27T15:14:08Z</time>
      </trkpt>
      <trkpt lat="50.15922" lon="4.1284">
        <ele>239.9</ele>
        <time>2024-12-27T15:14:22Z</time>
      </trkpt>
      <trkpt lat="50.15916" lon="4.12826">
        <ele>239.8</ele>
        <time>2024-12-27T15:14:30Z</time>
      </trkpt>
      <trkpt lat="50.15911" lon="4.12813">
        <ele>239.7</ele>
        <time>2024-12-27T15:14:39Z</time>
      </trkpt>
      <trkpt lat="50.15905" lon="4.128">
        <ele>239.7</ele>
        <time>2024-12-27T15:14:48Z</time>
      </trkpt>
      <trkpt lat="50.159" lon="4.12788">
        <ele>239.7</ele>
        <time>2024-12-27T15:14:57Z</time>
      </trkpt>
      <trkpt lat="50.15894" lon="4.12776">
        <ele>239.6</ele>
        <time>2024-12-27T15:15:07Z</time>
      </trkpt>
      <trkpt lat="50.1589" lon="4.12764">
        <ele>239.6</ele>
        <time>2024-12-27T15:15:16Z</time>
      </trkpt>
      <trkpt lat="50.15885" lon="4.12751">
        <ele>239.5</ele>
        <time>2024-12-27T15:15:25Z</time>
      </trkpt>
      <trkpt lat="50.15879" lon="4.12737">
        <ele>239.5</ele>
        <time>2024-12-27T15:15:35Z</time>
      </trkpt>
      <trkpt lat="50.15874" lon="4.12725">
        <ele>239.4</ele>
        <time>2024-12-27T15:15:45Z</time>
      </trkpt>
      <trkpt lat="50.15868" lon="4.12713">
        <ele>239.3</ele>
        <time>2024-12-27T15:15:54Z</time>
      </trkpt>
      <trkpt lat="50.15864" lon="4.127">
        <ele>239.3</ele>
        <time>2024-12-27T15:16:03Z</time>
      </trkpt>
      <trkpt lat="50.15859" lon="4.12688">
        <ele>239.2</ele>
        <time>2024-12-27T15:16:12Z</time>
      </trkpt>
      <trkpt lat="50.15854" lon="4.12674">
        <ele>239.2</ele>
        <time>2024-12-27T15:16:21Z</time>
      </trkpt>
      <trkpt lat="50.15848" lon="4.12663">
        <ele>239.1</ele>
        <time>2024-12-27T15:16:30Z</time>
      </trkpt>
      <trkpt lat="50.15841" lon="4.12652">
        <ele>239.1</ele>
        <time>2024-12-27T15:16:39Z</time>
      </trkpt>
      <trkpt lat="50.15836" lon="4.1264">
        <ele>239</ele>
        <time>2024-12-27T15:16:47Z</time>
      </trkpt>
      <trkpt lat="50.15831" lon="4.12628">
        <ele>238.9</ele>
        <time>2024-12-27T15:16:57Z</time>
      </trkpt>
      <trkpt lat="50.15824" lon="4.12617">
        <ele>238.9</ele>
        <time>2024-12-27T15:17:06Z</time>
      </trkpt>
      <trkpt lat="50.15818" lon="4.12606">
        <ele>238.8</ele>
        <time>2024-12-27T15:17:15Z</time>
      </trkpt>
      <trkpt lat="50.15811" lon="4.12594">
        <ele>238.8</ele>
        <time>2024-12-27T15:17:24Z</time>
      </trkpt>
      <trkpt lat="50.15806" lon="4.12581">
        <ele>238.8</ele>
        <time>2024-12-27T15:17:33Z</time>
      </trkpt>
      <trkpt lat="50.15801" lon="4.12569">
        <ele>238.7</ele>
        <time>2024-12-27T15:17:42Z</time>
      </trkpt>
      <trkpt lat="50.15795" lon="4.12558">
        <ele>238.7</ele>
        <time>2024-12-27T15:17:51Z</time>
      </trkpt>
      <trkpt lat="50.1579" lon="4.12545">
        <ele>238.6</ele>
        <time>2024-12-27T15:18:02Z</time>
      </trkpt>
      <trkpt lat="50.15785" lon="4.12532">
        <ele>238.5</ele>
        <time>2024-12-27T15:18:13Z</time>
      </trkpt>
      <trkpt lat="50.15781" lon="4.12519">
        <ele>238.4</ele>
        <time>2024-12-27T15:18:22Z</time>
      </trkpt>
      <trkpt lat="50.15778" lon="4.12505">
        <ele>238.3</ele>
        <time>2024-12-27T15:18:32Z</time>
      </trkpt>
      <trkpt lat="50.15776" lon="4.1249">
        <ele>238.2</ele>
        <time>2024-12-27T15:18:42Z</time>
      </trkpt>
      <trkpt lat="50.15773" lon="4.12476">
        <ele>238.1</ele>
        <time>2024-12-27T15:18:52Z</time>
      </trkpt>
      <trkpt lat="50.15771" lon="4.12462">
        <ele>238</ele>
        <time>2024-12-27T15:19:01Z</time>
      </trkpt>
      <trkpt lat="50.15768" lon="4.12448">
        <ele>237.8</ele>
        <time>2024-12-27T15:19:09Z</time>
      </trkpt>
      <trkpt lat="50.15766" lon="4.12434">
        <ele>237.7</ele>
        <time>2024-12-27T15:19:17Z</time>
      </trkpt>
      <trkpt lat="50.15764" lon="4.12419">
        <ele>237.6</ele>
        <time>2024-12-27T15:19:26Z</time>
      </trkpt>
      <trkpt lat="50.15761" lon="4.12405">
        <ele>237.5</ele>
        <time>2024-12-27T15:19:36Z</time>
      </trkpt>
      <trkpt lat="50.1576" lon="4.12391">
        <ele>237.4</ele>
        <time>2024-12-27T15:19:45Z</time>
      </trkpt>
      <trkpt lat="50.15758" lon="4.12375">
        <ele>237.3</ele>
        <time>2024-12-27T15:19:55Z</time>
      </trkpt>
      <trkpt lat="50.15756" lon="4.12361">
        <ele>237.2</ele>
        <time>2024-12-27T15:20:04Z</time>
      </trkpt>
      <trkpt lat="50.15755" lon="4.12347">
        <ele>237.2</ele>
        <time>2024-12-27T15:20:13Z</time>
      </trkpt>
      <trkpt lat="50.15753" lon="4.12333">
        <ele>237.1</ele>
        <time>2024-12-27T15:20:22Z</time>
      </trkpt>
      <trkpt lat="50.15751" lon="4.12318">
        <ele>237</ele>
        <time>2024-12-27T15:20:31Z</time>
      </trkpt>
      <trkpt lat="50.15749" lon="4.12303">
        <ele>236.8</ele>
        <time>2024-12-27T15:20:41Z</time>
      </trkpt>
      <trkpt lat="50.15747" lon="4.12289">
        <ele>236.7</ele>
        <time>2024-12-27T15:20:51Z</time>
      </trkpt>
      <trkpt lat="50.15745" lon="4.12276">
        <ele>236.6</ele>
        <time>2024-12-27T15:21:00Z</time>
      </trkpt>
      <trkpt lat="50.15743" lon="4.12261">
        <ele>236.4</ele>
        <time>2024-12-27T15:21:09Z</time>
      </trkpt>
      <trkpt lat="50.15741" lon="4.12247">
        <ele>236.3</ele>
        <time>2024-12-27T15:21:18Z</time>
      </trkpt>
      <trkpt lat="50.1574" lon="4.12232">
        <ele>236.2</ele>
        <time>2024-12-27T15:21:27Z</time>
      </trkpt>
      <trkpt lat="50.15736" lon="4.12219">
        <ele>236.1</ele>
        <time>2024-12-27T15:21:36Z</time>
      </trkpt>
      <trkpt lat="50.15734" lon="4.12205">
        <ele>236</ele>
        <time>2024-12-27T15:21:46Z</time>
      </trkpt>
      <trkpt lat="50.15733" lon="4.1219">
        <ele>235.9</ele>
        <time>2024-12-27T15:21:55Z</time>
      </trkpt>
      <trkpt lat="50.15731" lon="4.12176">
        <ele>235.7</ele>
        <time>2024-12-27T15:22:04Z</time>
      </trkpt>
      <trkpt lat="50.15729" lon="4.1216">
        <ele>235.6</ele>
        <time>2024-12-27T15:22:14Z</time>
      </trkpt>
      <trkpt lat="50.15726" lon="4.12147">
        <ele>235.5</ele>
        <time>2024-12-27T15:22:23Z</time>
      </trkpt>
      <trkpt lat="50.15724" lon="4.12131">
        <ele>235.5</ele>
        <time>2024-12-27T15:22:32Z</time>
      </trkpt>
      <trkpt lat="50.15722" lon="4.12117">
        <ele>235.4</ele>
        <time>2024-12-27T15:22:46Z</time>
      </trkpt>
      <trkpt lat="50.15721" lon="4.12103">
        <ele>235.3</ele>
        <time>2024-12-27T15:22:55Z</time>
      </trkpt>
      <trkpt lat="50.15718" lon="4.12089">
        <ele>235.3</ele>
        <time>2024-12-27T15:23:05Z</time>
      </trkpt>
      <trkpt lat="50.15713" lon="4.12075">
        <ele>235.3</ele>
        <time>2024-12-27T15:23:16Z</time>
      </trkpt>
      <trkpt lat="50.15707" lon="4.12071">
        <ele>235.3</ele>
        <time>2024-12-27T15:23:37Z</time>
      </trkpt>
      <trkpt lat="50.15707" lon="4.12071">
        <ele>235.3</ele>
        <time>2024-12-27T15:23:38Z</time>
      </trkpt>
      <trkpt lat="50.15707" lon="4.1207">
        <ele>235.3</ele>
        <time>2024-12-27T15:23:41Z</time>
      </trkpt>
      <trkpt lat="50.15707" lon="4.1207">
        <ele>235.3</ele>
        <time>2024-12-27T15:23:42Z</time>
      </trkpt>
      <trkpt lat="50.15707" lon="4.1207">
        <ele>235.3</ele>
        <time>2024-12-27T15:23:43Z</time>
      </trkpt>
      <trkpt lat="50.15707" lon="4.1207">
        <ele>235.3</ele>
        <time>2024-12-27T15:23:44Z</time>
      </trkpt>
      <trkpt lat="50.15707" lon="4.1207">
        <ele>235.3</ele>
        <time>2024-12-27T15:23:45Z</time>
      </trkpt>
      <trkpt lat="50.15706" lon="4.12069">
        <ele>235.3</ele>
        <time>2024-12-27T15:23:48Z</time>
      </trkpt>
      <trkpt lat="50.15706" lon="4.12069">
        <ele>235.3</ele>
        <time>2024-12-27T15:23:49Z</time>
      </trkpt>
      <trkpt lat="50.15706" lon="4.12069">
        <ele>235.3</ele>
        <time>2024-12-27T15:23:50Z</time>
      </trkpt>
      <trkpt lat="50.15703" lon="4.12069">
        <ele>235.3</ele>
        <time>2024-12-27T15:23:57Z</time>
      </trkpt>
      <trkpt lat="50.15703" lon="4.12069">
        <ele>235.3</ele>
        <time>2024-12-27T15:23:58Z</time>
      </trkpt>
      <trkpt lat="50.15702" lon="4.1207">
        <ele>235.3</ele>
        <time>2024-12-27T15:23:59Z</time>
      </trkpt>
      <trkpt lat="50.15702" lon="4.12069">
        <ele>235.3</ele>
        <time>2024-12-27T15:24:00Z</time>
      </trkpt>
      <trkpt lat="50.15704" lon="4.12067">
        <ele>235.3</ele>
        <time>2024-12-27T15:24:09Z</time>
      </trkpt>
      <trkpt lat="50.15704" lon="4.12067">
        <ele>235.3</ele>
        <time>2024-12-27T15:24:10Z</time>
      </trkpt>
      <trkpt lat="50.15705" lon="4.12067">
        <ele>235.3</ele>
        <time>2024-12-27T15:24:11Z</time>
      </trkpt>
      <trkpt lat="50.15704" lon="4.12072">
        <ele>235.3</ele>
        <time>2024-12-27T15:24:14Z</time>
      </trkpt>
      <trkpt lat="50.15705" lon="4.12073">
        <ele>235.3</ele>
        <time>2024-12-27T15:24:15Z</time>
      </trkpt>
      <trkpt lat="50.15714" lon="4.12077">
        <ele>235.3</ele>
        <time>2024-12-27T15:24:28Z</time>
      </trkpt>
      <trkpt lat="50.15705" lon="4.1207">
        <ele>235.3</ele>
        <time>2024-12-27T15:24:36Z</time>
      </trkpt>
      <trkpt lat="50.15704" lon="4.12068">
        <ele>235.3</ele>
        <time>2024-12-27T15:24:43Z</time>
      </trkpt>
      <trkpt lat="50.15703" lon="4.12068">
        <ele>235.3</ele>
        <time>2024-12-27T15:24:44Z</time>
      </trkpt>
      <trkpt lat="50.15702" lon="4.12069">
        <ele>235.3</ele>
        <time>2024-12-27T15:24:45Z</time>
      </trkpt>
      <trkpt lat="50.15701" lon="4.12071">
        <ele>235.3</ele>
        <time>2024-12-27T15:24:51Z</time>
      </trkpt>
      <trkpt lat="50.15701" lon="4.12071">
        <ele>235.3</ele>
        <time>2024-12-27T15:24:52Z</time>
      </trkpt>
      <trkpt lat="50.15697" lon="4.12063">
        <ele>235.3</ele>
        <time>2024-12-27T15:25:09Z</time>
      </trkpt>
      <trkpt lat="50.15697" lon="4.12063">
        <ele>235.3</ele>
        <time>2024-12-27T15:25:10Z</time>
      </trkpt>
      <trkpt lat="50.157" lon="4.12071">
        <ele>235.3</ele>
        <time>2024-12-27T15:25:34Z</time>
      </trkpt>
      <trkpt lat="50.157" lon="4.1207">
        <ele>235.3</ele>
        <time>2024-12-27T15:25:35Z</time>
      </trkpt>
      <trkpt lat="50.15701" lon="4.12069">
        <ele>235.3</ele>
        <time>2024-12-27T15:25:48Z</time>
      </trkpt>
      <trkpt lat="50.15701" lon="4.12069">
        <ele>235.3</ele>
        <time>2024-12-27T15:25:49Z</time>
      </trkpt>
      <trkpt lat="50.15701" lon="4.1207">
        <ele>235.3</ele>
        <time>2024-12-27T15:25:50Z</time>
      </trkpt>
      <trkpt lat="50.15699" lon="4.1207">
        <ele>235.3</ele>
        <time>2024-12-27T15:25:56Z</time>
      </trkpt>
      <trkpt lat="50.15699" lon="4.1207">
        <ele>235.3</ele>
        <time>2024-12-27T15:25:57Z</time>
      </trkpt>
      <trkpt lat="50.15699" lon="4.1207">
        <ele>235.3</ele>
        <time>2024-12-27T15:25:58Z</time>
      </trkpt>
      <trkpt lat="50.15697" lon="4.12075">
        <ele>235.3</ele>
        <time>2024-12-27T15:26:08Z</time>
      </trkpt>
      <trkpt lat="50.15696" lon="4.12076">
        <ele>235.3</ele>
        <time>2024-12-27T15:26:09Z</time>
      </trkpt>
      <trkpt lat="50.15696" lon="4.12076">
        <ele>235.3</ele>
        <time>2024-12-27T15:26:10Z</time>
      </trkpt>
      <trkpt lat="50.15693" lon="4.12074">
        <ele>235.2</ele>
        <time>2024-12-27T15:26:13Z</time>
      </trkpt>
      <trkpt lat="50.15691" lon="4.12075">
        <ele>235.2</ele>
        <time>2024-12-27T15:26:14Z</time>
      </trkpt>
      <trkpt lat="50.1569" lon="4.12075">
        <ele>235.2</ele>
        <time>2024-12-27T15:26:15Z</time>
      </trkpt>
      <trkpt lat="50.1569" lon="4.12073">
        <ele>235.2</ele>
        <time>2024-12-27T15:26:19Z</time>
      </trkpt>
      <trkpt lat="50.1569" lon="4.12073">
        <ele>235.2</ele>
        <time>2024-12-27T15:26:20Z</time>
      </trkpt>
      <trkpt lat="50.15689" lon="4.12073">
        <ele>235.2</ele>
        <time>2024-12-27T15:26:21Z</time>
      </trkpt>
      <trkpt lat="50.15688" lon="4.12072">
        <ele>235.2</ele>
        <time>2024-12-27T15:26:22Z</time>
      </trkpt>
      <trkpt lat="50.15688" lon="4.12072">
        <ele>235.2</ele>
        <time>2024-12-27T15:26:23Z</time>
      </trkpt>
      <trkpt lat="50.15685" lon="4.12074">
        <ele>235.2</ele>
        <time>2024-12-27T15:26:31Z</time>
      </trkpt>
      <trkpt lat="50.15687" lon="4.12075">
        <ele>235.2</ele>
        <time>2024-12-27T15:26:32Z</time>
      </trkpt>
      <trkpt lat="50.15688" lon="4.12076">
        <ele>235.2</ele>
        <time>2024-12-27T15:26:33Z</time>
      </trkpt>
      <trkpt lat="50.15695" lon="4.12075">
        <ele>235.2</ele>
        <time>2024-12-27T15:26:36Z</time>
      </trkpt>
      <trkpt lat="50.15696" lon="4.12076">
        <ele>235.2</ele>
        <time>2024-12-27T15:26:37Z</time>
      </trkpt>
      <trkpt lat="50.15698" lon="4.12074">
        <ele>235.2</ele>
        <time>2024-12-27T15:26:46Z</time>
      </trkpt>
      <trkpt lat="50.15698" lon="4.12074">
        <ele>235.2</ele>
        <time>2024-12-27T15:26:47Z</time>
      </trkpt>
      <trkpt lat="50.15697" lon="4.12074">
        <ele>235.2</ele>
        <time>2024-12-27T15:26:48Z</time>
      </trkpt>
      <trkpt lat="50.15698" lon="4.12073">
        <ele>235.2</ele>
        <time>2024-12-27T15:26:49Z</time>
      </trkpt>
      <trkpt lat="50.15699" lon="4.12072">
        <ele>235.2</ele>
        <time>2024-12-27T15:26:50Z</time>
      </trkpt>
      <trkpt lat="50.15698" lon="4.1207">
        <ele>235.2</ele>
        <time>2024-12-27T15:27:08Z</time>
      </trkpt>
      <trkpt lat="50.15697" lon="4.1207">
        <ele>235.2</ele>
        <time>2024-12-27T15:27:09Z</time>
      </trkpt>
      <trkpt lat="50.15697" lon="4.1207">
        <ele>235.2</ele>
        <time>2024-12-27T15:27:10Z</time>
      </trkpt>
      <trkpt lat="50.15698" lon="4.12071">
        <ele>235.2</ele>
        <time>2024-12-27T15:27:14Z</time>
      </trkpt>
      <trkpt lat="50.15697" lon="4.12071">
        <ele>235.2</ele>
        <time>2024-12-27T15:27:15Z</time>
      </trkpt>
      <trkpt lat="50.15695" lon="4.12073">
        <ele>235.2</ele>
        <time>2024-12-27T15:27:21Z</time>
      </trkpt>
      <trkpt lat="50.15695" lon="4.12072">
        <ele>235.2</ele>
        <time>2024-12-27T15:27:22Z</time>
      </trkpt>
      <trkpt lat="50.15695" lon="4.12072">
        <ele>235.2</ele>
        <time>2024-12-27T15:27:23Z</time>
      </trkpt>
      <trkpt lat="50.15696" lon="4.12071">
        <ele>235.2</ele>
        <time>2024-12-27T15:27:28Z</time>
      </trkpt>
      <trkpt lat="50.15697" lon="4.1207">
        <ele>235.2</ele>
        <time>2024-12-27T15:27:29Z</time>
      </trkpt>
      <trkpt lat="50.15699" lon="4.12069">
        <ele>235.2</ele>
        <time>2024-12-27T15:27:30Z</time>
      </trkpt>
      <trkpt lat="50.15702" lon="4.12064">
        <ele>235.2</ele>
        <time>2024-12-27T15:27:52Z</time>
      </trkpt>
      <trkpt lat="50.15702" lon="4.12064">
        <ele>235.2</ele>
        <time>2024-12-27T15:27:53Z</time>
      </trkpt>
      <trkpt lat="50.15703" lon="4.12063">
        <ele>235.2</ele>
        <time>2024-12-27T15:27:57Z</time>
      </trkpt>
      <trkpt lat="50.15704" lon="4.12062">
        <ele>235.2</ele>
        <time>2024-12-27T15:27:57Z</time>
      </trkpt>
      <trkpt lat="50.15704" lon="4.12062">
        <ele>235.2</ele>
        <time>2024-12-27T15:27:57Z</time>
      </trkpt>
    </trkseg>
  </trk>
</gpx>